Data for 04/22/2011

Time Sea-Level Adjusted Pressure Absolute Pressure Temperature Relative Humidity Dew Point Precipitation   
(mb) (inHg) (mb) (inHg) (C) (F) (%) (C) (F) (mm) (in)
00:01 1016 30 845 24.95 -2.9 26.8 100 -2.9 26.8 -2.571 -0.101
00:02 1016 30 845 24.95 -3 26.7 100 -2.9 26.7 -2.599 -0.102
00:03 1016 30 845 24.95 -3 26.7 100 -3 26.7 -2.633 -0.104
00:04 1016 30 845 24.95 -3 26.6 100 -3 26.6 -2.644 -0.104
00:05 1016 30 845 24.95 -3 26.5 100 -3 26.5 -2.656 -0.105
00:06 1016 30 845 24.95 -3.1 26.5 100 -3.1 26.5 -2.667 -0.105
00:07 1016 30 845 24.95 -3.1 26.4 100 -3.1 26.4 -2.758 -0.109
00:08 1016 30 845 24.95 -3.1 26.4 100 -3.1 26.4 -2.763 -0.109
00:09 1016 30 845 24.95 -3.2 26.2 100 -3.2 26.2 -2.814 -0.111
00:10 1016 30 845 24.95 -3.2 26.2 100 -3.2 26.2 -2.837 -0.112
00:11 1016 30 845 24.95 -3.3 26.1 100 -3.3 26.1 -2.86 -0.113
00:12 1016 30 845 24.95 -3.3 26 100 -3.3 26 -2.887 -0.114
00:13 1016 30 845 24.95 -3.4 26 100 -3.4 26 -2.943 -0.116
00:14 1016 30 845 24.95 -3.4 25.9 100 -3.4 25.9 -2.949 -0.116
00:15 1016 30 845 24.95 -3.3 26 100 -3.3 26 -2.932 -0.115
00:16 1016 30 845 24.95 -3.4 25.9 100 -3.4 25.9 -2.978 -0.117
00:17 1016 30 845 24.95 -3.4 25.9 100 -3.4 25.9 -2.995 -0.118
00:18 1016 30 845 24.95 -3.4 25.9 100 -3.4 25.9 -3.011 -0.119
00:19 1016 30 845 24.95 -3.4 25.8 100 -3.4 25.8 -3.028 -0.119
00:20 1016 30 845 24.95 -3.5 25.8 100 -3.5 25.8 -3.039 -0.12
00:21 1016 30 845 24.95 -3.4 25.8 100 -3.4 25.8 -3 -0.118
00:22 1016 30 845 24.95 -3.4 25.8 100 -3.4 25.8 -3.056 -0.12
00:23 1016 30 845 24.95 -3.4 25.8 100 -3.4 25.8 -3.034 -0.119
00:24 1016 30 845 24.95 -3.4 25.8 100 -3.4 25.8 -2.993 -0.118
00:25 1016 30 845 24.95 -3.4 25.9 100 -3.4 25.9 -2.999 -0.118
00:26 1016 30 845 24.95 -3.4 25.9 100 -3.4 25.9 -2.953 -0.116
00:27 1016 30 845 24.95 -3.3 26 100 -3.3 26 -2.97 -0.117
00:28 1016 30 845 24.95 -3.3 26 100 -3.3 26 -2.93 -0.115
00:29 1016 30 845 24.95 -3.3 26 100 -3.3 26 -2.919 -0.115
00:30 1016 30 845 24.95 -3.4 25.9 100 -3.4 25.9 -2.907 -0.114
00:31 1016 30 845 24.95 -3.4 25.9 100 -3.4 25.9 -3.014 -0.119
00:32 1016 30 845 24.95 -3.4 25.8 100 -3.4 25.8 -3.026 -0.119
00:33 1016 30 845 24.95 -3.4 25.9 100 -3.4 25.9 -3.042 -0.12
00:34 1016 30 845 24.95 -3.5 25.8 100 -3.5 25.8 -3.048 -0.12
00:35 1016 30 845 24.95 -3.5 25.8 100 -3.5 25.8 -3.099 -0.122
00:36 1016 30 845 24.95 -3.5 25.7 100 -3.5 25.7 -3.116 -0.123
00:37 1016 30 845 24.95 -3.5 25.7 100 -3.5 25.7 -3.121 -0.123
00:38 1016 30 845 24.95 -3.5 25.7 100 -3.5 25.7 -3.15 -0.124
00:39 1016 30 845 24.95 -3.5 25.6 100 -3.5 25.6 -3.132 -0.123
00:40 1016 30 845 24.95 -3.5 25.7 100 -3.5 25.7 -3.178 -0.125
00:41 1016 30 845 24.95 -3.5 25.6 100 -3.5 25.6 -3.161 -0.124
00:42 1016 30 845 24.95 -3.5 25.7 100 -3.5 25.7 -3.126 -0.123
00:43 1016 30 845 24.95 -3.5 25.7 100 -3.5 25.7 -3.143 -0.124
00:44 1016 30 845 24.95 -3.5 25.8 100 -3.5 25.8 -3.092 -0.122
00:45 1016 30 846 24.98 -3.4 25.9 100 -3.4 25.9 -3.053 -0.12
00:46 1016 30 846 24.98 -3.5 25.8 100 -3.5 25.8 -3.002 -0.118
00:47 1016 30 846 24.98 -3.4 25.9 100 -3.4 25.9 -2.99 -0.118
00:48 1016 30 846 24.98 -3.4 25.9 100 -3.4 25.9 -3.001 -0.118
00:49 1016 30 846 24.98 -3.4 25.9 100 -3.4 25.9 -2.979 -0.117
00:50 1016 30 846 24.98 -3.3 26 100 -3.3 26 -2.939 -0.116
00:51 1016 30 846 24.98 -3.3 26 100 -3.3 26 -2.956 -0.116
00:52 1016 30 846 24.98 -3.3 26 100 -3.3 26 -2.911 -0.115
00:53 1016 30 846 24.98 -3.3 26 100 -3.3 26 -2.933 -0.115
00:54 1016 30 846 24.98 -3.3 26.1 100 -3.3 26.1 -2.932 -0.115
00:55 1016 30 846 24.98 -3.3 26 100 -3.3 26 -2.909 -0.115
00:56 1017 30.03 846 24.98 -3.3 26.1 100 -3.3 26.1 -2.926 -0.115
00:57 1017 30.03 846 24.98 -3.3 26 100 -3.3 26 -2.931 -0.115
00:58 1017 30.03 846 24.98 -3.3 26.1 100 -3.3 26.1 -2.874 -0.113
00:59 1017 30.03 846 24.98 -3.3 26.1 100 -3.3 26.1 -2.964 -0.117
01:00 1017 30.03 846 24.98 -3.3 26 100 -3.3 26 -2.907 -0.114
01:01 1017 30.03 846 24.98 -3.3 26 100 -3.3 26 -2.919 -0.115
01:02 1017 30.03 846 24.98 -3.3 26.1 100 -3.3 26.1 -2.912 -0.115
01:03 1017 30.03 846 24.98 -3.3 26 100 -3.3 26 -2.929 -0.115
01:04 1017 30.03 846 24.98 -3.3 26 100 -3.3 26 -2.929 -0.115
01:05 1017 30.03 846 24.98 -3.3 26 100 -3.3 26 -2.912 -0.115
01:06 1017 30.03 846 24.98 -3.3 26 100 -3.3 26 -2.94 -0.116
01:07 1017 30.03 846 24.98 -3.4 25.9 100 -3.4 25.9 -2.974 -0.117
01:08 1017 30.03 846 24.98 -3.4 25.9 100 -3.4 25.9 -2.951 -0.116
01:09 1017 30.03 846 24.98 -3.4 25.9 100 -3.4 25.9 -3.019 -0.119
01:10 1017 30.03 846 24.98 -3.4 25.9 100 -3.4 25.9 -3.042 -0.12
01:11 1017 30.03 846 24.98 -3.4 25.9 100 -3.4 25.9 -3.036 -0.12
01:12 1017 30.03 846 24.98 -3.5 25.7 100 -3.5 25.7 -3.081 -0.121
01:13 1017 30.03 846 24.98 -3.5 25.7 100 -3.5 25.7 -3.132 -0.123
01:14 1017 30.03 846 24.98 -3.5 25.6 100 -3.5 25.6 -3.12 -0.123
01:15 1017 30.03 846 24.98 -3.6 25.6 100 -3.6 25.6 -3.183 -0.125
01:16 1017 30.03 846 24.98 -3.6 25.6 100 -3.6 25.6 -3.211 -0.126
01:17 1017 30.03 846 24.98 -3.7 25.4 100 -3.7 25.4 -3.245 -0.128
01:18 1017 30.03 846 24.98 -3.8 25.2 100 -3.8 25.2 -3.381 -0.133
01:19 1017 30.03 846 24.98 -3.9 25 100 -3.9 25 -3.46 -0.136
01:20 1017 30.03 846 24.98 -3.9 25 100 -3.9 25 -3.528 -0.139
01:21 1017 30.03 846 24.98 -3.9 25 100 -3.9 25 -3.534 -0.139
01:22 1017 30.03 846 24.98 -3.9 24.9 100 -3.9 24.9 -3.551 -0.14
01:23 1017 30.03 846 24.98 -3.9 24.9 100 -3.9 24.9 -3.573 -0.141
01:24 1017 30.03 846 24.98 -4 24.8 100 -4 24.8 -3.607 -0.142
01:25 1017 30.03 846 24.98 -4 24.8 100 -4 24.8 -3.63 -0.143
01:26 1017 30.03 846 24.98 -4 24.7 100 -4 24.7 -3.641 -0.143
01:27 1017 30.03 846 24.98 -4.1 24.7 100 -4.1 24.7 -3.669 -0.144
01:28 1017 30.03 846 24.98 -4 24.7 100 -4 24.7 -3.703 -0.146
01:29 1017 30.03 846 24.98 -4.1 24.7 100 -4.1 24.7 -3.681 -0.145
01:30 1017 30.03 846 24.98 -4.1 24.7 100 -4.1 24.7 -3.686 -0.145
01:31 1017 30.03 846 24.98 -4.1 24.7 100 -4.1 24.7 -3.698 -0.146
01:32 1017 30.03 846 24.98 -4.1 24.5 100 -4.1 24.5 -3.748 -0.148
01:33 1017 30.03 846 24.98 -4.2 24.5 100 -4.2 24.4 -3.805 -0.15
01:34 1017 30.03 846 24.98 -4.2 24.4 100 -4.3 24.3 -3.833 -0.151
01:35 1017 30.03 846 24.98 -4.2 24.4 100 -4.3 24.3 -3.873 -0.152
01:36 1017 30.03 846 24.98 -4.3 24.2 100 -4.3 24.2 -3.941 -0.155
01:37 1017 30.03 846 24.98 -4.3 24.3 100 -4.4 24.2 -3.918 -0.154
01:38 1017 30.03 846 24.98 -4.4 24.1 100 -4.4 24 -3.992 -0.157
01:39 1017 30.03 846 24.98 -4.4 24.1 100 -4.5 24 -4.032 -0.159
01:40 1017 30.03 846 24.98 -4.5 24 99 -4.5 23.8 -4.083 -0.161
01:41 1017 30.03 846 24.98 -4.5 24 99 -4.5 23.8 -4.094 -0.161
01:42 1017 30.03 846 24.98 -4.5 23.9 99 -4.6 23.7 -4.151 -0.163
01:43 1017 30.03 846 24.98 -4.6 23.8 99 -4.7 23.6 -4.196 -0.165
01:44 1016 30 846 24.98 -4.6 23.7 99 -4.7 23.6 -4.185 -0.165
01:45 1017 30.03 846 24.98 -4.6 23.7 99 -4.7 23.5 -4.202 -0.165
01:46 1017 30.03 846 24.98 -4.7 23.6 99 -4.8 23.4 -4.275 -0.168
01:47 1017 30.03 846 24.98 -4.7 23.5 99 -4.8 23.3 -4.332 -0.171
01:48 1017 30.03 846 24.98 -4.7 23.5 99 -4.9 23.2 -4.338 -0.171
01:49 1017 30.03 846 24.98 -4.8 23.4 99 -4.9 23.1 -4.417 -0.174
01:50 1017 30.03 846 24.98 -4.9 23.3 99 -5 23 -4.462 -0.176
01:51 1017 30.03 846 24.98 -4.9 23.2 99 -5 22.9 -4.474 -0.176
01:52 1017 30.03 846 24.98 -4.9 23.1 99 -5.1 22.8 -4.553 -0.179
01:53 1017 30.03 846 24.98 -5 23.1 99 -5.2 22.7 -4.61 -0.181
01:54 1017 30.03 846 24.98 -5 22.9 99 -5.2 22.6 -4.666 -0.184
01:55 1017 30.03 846 24.98 -5 22.9 99 -5.2 22.6 -4.729 -0.186
01:56 1017 30.03 846 24.98 -5.1 22.8 99 -5.3 22.5 -4.768 -0.188
01:57 1017 30.03 846 24.98 -5.1 22.8 98 -5.3 22.4 -4.768 -0.188
01:58 1017 30.03 846 24.98 -5.1 22.8 98 -5.4 22.3 -4.802 -0.189
01:59 1017 30.03 846 24.98 -5.2 22.7 98 -5.4 22.3 -4.831 -0.19
02:00 1017 30.03 846 24.98 -5.2 22.7 98 -5.4 22.3 -4.836 -0.19
02:01 1017 30.03 846 24.98 -5.2 22.7 98 -5.4 22.3 -4.848 -0.191
02:02 1017 30.03 846 24.98 -5.2 22.6 98 -5.5 22.1 -4.87 -0.192
02:03 1017 30.03 846 24.98 -5.2 22.6 98 -5.5 22.1 -4.933 -0.194
02:04 1017 30.03 846 24.98 -5.3 22.5 98 -5.5 22.1 -4.938 -0.194
02:05 1017 30.03 846 24.98 -5.3 22.5 98 -5.5 22.1 -4.893 -0.193
02:06 1017 30.03 846 24.98 -5.3 22.5 98 -5.5 22 -4.967 -0.196
02:07 1017 30.03 846 24.98 -5.3 22.4 98 -5.6 21.9 -4.978 -0.196
02:08 1017 30.03 846 24.98 -5.4 22.3 98 -5.6 21.9 -5.035 -0.198
02:09 1017 30.03 846 24.98 -5.4 22.3 98 -5.6 21.9 -5.063 -0.199
02:10 1017 30.03 846 24.98 -5.4 22.2 98 -5.7 21.8 -5.074 -0.2
02:11 1017 30.03 846 24.98 -5.5 22.2 98 -5.7 21.7 -5.08 -0.2
02:12 1016 30 846 24.98 -5.5 22.1 98 -5.8 21.6 -5.091 -0.2
02:13 1016 30 846 24.98 -5.5 22.1 98 -5.8 21.6 -5.114 -0.201
02:14 1016 30 846 24.98 -5.5 22.1 98 -5.8 21.6 -5.131 -0.202
02:15 1016 30 846 24.98 -5.5 22.1 98 -5.8 21.5 -5.165 -0.203
02:16 1016 30 846 24.98 -5.5 22 98 -5.8 21.5 -5.171 -0.204
02:17 1016 30 846 24.98 -5.5 22 98 -5.9 21.5 -5.199 -0.205
02:18 1016 30 846 24.98 -5.6 22 97 -5.9 21.4 -5.205 -0.205
02:19 1017 30.03 846 24.98 -5.6 21.9 97 -6 21.3 -5.227 -0.206
02:20 1016 30 846 24.98 -5.6 21.9 97 -6 21.2 -5.312 -0.209
02:21 1016 30 846 24.98 -5.7 21.8 97 -6.1 21.1 -5.284 -0.208
02:22 1016 30 846 24.98 -5.7 21.7 97 -6.1 20.9 -5.324 -0.21
02:23 1016 30 846 24.98 -5.8 21.6 97 -6.2 20.8 -5.38 -0.212
02:24 1016 30 846 24.98 -5.8 21.5 96 -6.3 20.6 -5.426 -0.214
02:25 1016 30 846 24.98 -5.9 21.4 96 -6.5 20.4 -5.499 -0.216
02:26 1017 30.03 846 24.98 -6 21.2 96 -6.6 20.2 -5.567 -0.219
02:27 1016 30 846 24.98 -6.1 21.1 96 -6.7 20 -5.63 -0.222
02:28 1016 30 846 24.98 -6.1 21 95 -6.7 19.9 -5.698 -0.224
02:29 1017 30.03 846 24.98 -6.2 20.8 95 -6.9 19.6 -5.822 -0.229
02:30 1017 30.03 846 24.98 -6.3 20.6 95 -7 19.4 -5.913 -0.233
02:31 1017 30.03 846 24.98 -6.4 20.5 95 -7.1 19.3 -5.998 -0.236
02:32 1017 30.03 846 24.98 -6.5 20.3 95 -7.2 19.1 -6.066 -0.239
02:33 1017 30.03 846 24.98 -6.6 20.2 95 -7.2 19 -6.161 -0.243
02:34 1017 30.03 846 24.98 -6.6 20.1 95 -7.2 19 -6.229 -0.245
02:35 1017 30.03 846 24.98 -6.6 20.1 95 -7.3 18.9 -6.292 -0.248
02:36 1017 30.03 846 24.98 -6.7 20 96 -7.3 18.9 -6.319 -0.249
02:37 1017 30.03 846 24.98 -6.7 20 96 -7.2 19 -6.325 -0.249
02:38 1017 30.03 846 24.98 -6.7 20 96 -7.3 18.9 -6.376 -0.251
02:39 1017 30.03 846 24.98 -6.7 19.9 96 -7.3 18.9 -6.403 -0.252
02:40 1017 30.03 846 24.98 -6.7 19.9 96 -7.3 18.9 -6.392 -0.252
02:41 1017 30.03 846 24.98 -6.7 19.9 96 -7.3 18.9 -6.369 -0.251
02:42 1017 30.03 846 24.98 -6.7 20 96 -7.2 19 -6.408 -0.252
02:43 1017 30.03 846 24.98 -6.6 20.1 96 -7.1 19.2 -6.34 -0.25
02:44 1017 30.03 846 24.98 -6.6 20.2 96 -7 19.3 -6.301 -0.248
02:45 1017 30.03 846 24.98 -6.5 20.4 96 -6.9 19.5 -6.221 -0.245
02:46 1017 30.03 846 24.98 -6.4 20.5 96 -6.9 19.6 -6.141 -0.242
02:47 1017 30.03 846 24.98 -6.3 20.7 96 -6.8 19.7 -6.062 -0.239
02:48 1017 30.03 846 24.98 -6.2 20.9 96 -6.7 19.9 -5.982 -0.236
02:49 1017 30.03 846 24.98 -6.1 21 96 -6.7 20 -5.897 -0.232
02:50 1017 30.03 846 24.98 -6.1 21.1 96 -6.7 20 -5.846 -0.23
02:51 1017 30.03 846 24.98 -6.1 21.1 96 -6.7 20 -5.873 -0.231
02:52 1017 30.03 846 24.98 -6.1 21.1 95 -6.7 20 -5.8 -0.228
02:53 1017 30.03 846 24.98 -6 21.2 95 -6.6 20 -5.827 -0.229
02:54 1017 30.03 846 24.98 -6 21.1 95 -6.7 20 -5.77 -0.227
02:55 1017 30.03 846 24.98 -6 21.2 95 -6.6 20 -5.781 -0.228
02:56 1017 30.03 846 24.98 -6 21.2 95 -6.6 20.1 -5.77 -0.227
02:57 1017 30.03 846 24.98 -6 21.3 95 -6.6 20.1 -5.752 -0.226
02:58 1017 30.03 846 24.98 -5.9 21.3 95 -6.6 20.1 -5.707 -0.225
02:59 1017 30.03 846 24.98 -6 21.3 95 -6.6 20.1 -5.724 -0.225
03:00 1017 30.03 846 24.98 -5.9 21.3 95 -6.6 20.1 -5.752 -0.226
03:01 1017 30.03 846 24.98 -6 21.2 95 -6.6 20 -5.73 -0.226
03:02 1017 30.03 846 24.98 -6 21.3 95 -6.6 20.1 -5.701 -0.224
03:03 1017 30.03 846 24.98 -6 21.3 95 -6.6 20.1 -5.723 -0.225
03:04 1017 30.03 846 24.98 -6 21.2 95 -6.6 20 -5.769 -0.227
03:05 1017 30.03 846 24.98 -6 21.3 95 -6.6 20 -5.785 -0.228
03:06 1017 30.03 846 24.98 -6 21.2 95 -6.7 19.9 -5.745 -0.226
03:07 1017 30.03 846 24.98 -6 21.2 95 -6.7 19.9 -5.779 -0.228
03:08 1017 30.03 846 24.98 -6 21.1 95 -6.7 19.9 -5.802 -0.228
03:09 1017 30.03 846 24.98 -6.1 21.1 95 -6.8 19.8 -5.779 -0.228
03:10 1017 30.03 846 24.98 -6 21.1 95 -6.8 19.8 -5.83 -0.23
03:11 1017 30.03 846 24.98 -6.1 21.1 95 -6.8 19.8 -5.83 -0.23
03:12 1017 30.03 846 24.98 -6.1 21 95 -6.8 19.7 -5.807 -0.229
03:13 1017 30.03 846 24.98 -6.1 21 95 -6.9 19.7 -5.858 -0.231
03:14 1017 30.03 846 24.98 -6.1 21 94 -6.9 19.6 -5.891 -0.232
03:15 1017 30.03 846 24.98 -6.2 20.9 94 -6.9 19.6 -5.891 -0.232
03:16 1017 30.03 846 24.98 -6.2 20.9 95 -6.9 19.6 -5.897 -0.232
03:17 1017 30.03 846 24.98 -6.2 20.8 95 -7 19.4 -5.954 -0.234
03:18 1017 30.03 846 24.98 -6.2 20.8 95 -7 19.5 -5.919 -0.233
03:19 1017 30.03 846 24.98 -6.3 20.7 95 -7 19.4 -5.948 -0.234
03:20 1017 30.03 846 24.98 -6.3 20.7 95 -7 19.4 -5.97 -0.235
03:21 1017 30.03 846 24.98 -6.3 20.7 95 -7 19.4 -5.987 -0.236
03:22 1017 30.03 846 24.98 -6.3 20.7 95 -7 19.4 -5.987 -0.236
03:23 1017 30.03 846 24.98 -6.3 20.7 95 -7 19.3 -6.027 -0.237
03:24 1017 30.03 846 24.98 -6.3 20.7 94 -7 19.3 -5.993 -0.236
03:25 1017 30.03 846 24.98 -6.3 20.6 95 -7.1 19.3 -6.049 -0.238
03:26 1017 30.03 846 24.98 -6.3 20.6 94 -7.1 19.2 -6.055 -0.238
03:27 1017 30.03 846 24.98 -6.3 20.6 94 -7.1 19.2 -6.095 -0.24
03:28 1017 30.03 846 24.98 -6.4 20.4 95 -7.1 19.2 -6.157 -0.242
03:29 1017 30.03 846 24.98 -6.5 20.3 95 -7.2 19.1 -6.168 -0.243
03:30 1017 30.03 846 24.98 -6.6 20.2 96 -7.2 19.1 -6.231 -0.245
03:31 1017 30.03 846 24.98 -6.6 20.1 96 -7.2 19.1 -6.248 -0.246
03:32 1017 30.03 846 24.98 -6.6 20.1 96 -7.2 19.1 -6.282 -0.247
03:33 1017 30.03 846 24.98 -6.7 20 96 -7.2 19 -6.321 -0.249
03:34 1017 30.03 846 24.98 -6.7 19.9 95 -7.4 18.7 -6.406 -0.252
03:35 1017 30.03 846 24.98 -6.7 19.9 94 -7.5 18.5 -6.401 -0.252
03:36 1017 30.03 846 24.98 -6.7 19.9 94 -7.5 18.5 -6.452 -0.254
03:37 1017 30.03 846 24.98 -6.7 19.9 94 -7.5 18.5 -6.452 -0.254
03:38 1017 30.03 846 24.98 -6.7 19.9 94 -7.5 18.4 -6.503 -0.256
03:39 1017 30.03 846 24.98 -6.7 19.9 94 -7.6 18.3 -6.463 -0.254
03:40 1017 30.03 846 24.98 -6.8 19.8 93 -7.7 18.2 -6.497 -0.256
03:41 1017 30.03 846 24.98 -6.7 19.9 93 -7.6 18.3 -6.548 -0.258
03:42 1017 30.03 846 24.98 -6.7 19.9 93 -7.7 18.2 -6.502 -0.256
03:43 1017 30.03 846 24.98 -6.7 20 93 -7.6 18.3 -6.502 -0.256
03:44 1017 30.03 846 24.98 -6.6 20.1 93 -7.5 18.5 -6.423 -0.253
03:45 1017 30.03 846 24.98 -6.6 20.1 93 -7.6 18.4 -6.389 -0.252
03:46 1017 30.03 846 24.98 -6.6 20.2 93 -7.5 18.5 -6.361 -0.25
03:47 1017 30.03 846 24.98 -6.6 20.2 93 -7.6 18.4 -6.412 -0.252
03:48 1017 30.03 846 24.98 -6.6 20.1 92 -7.6 18.3 -6.406 -0.252
03:49 1017 30.03 846 24.98 -6.6 20.1 92 -7.7 18.2 -6.406 -0.252
03:50 1017 30.03 846 24.98 -6.6 20.1 92 -7.7 18.1 -6.434 -0.253
03:51 1017 30.03 846 24.98 -6.6 20.1 92 -7.8 18 -6.44 -0.254
03:52 1017 30.03 846 24.98 -6.6 20.1 91 -7.8 18 -6.474 -0.255
03:53 1017 30.03 846 24.98 -6.7 20 91 -7.9 17.8 -6.519 -0.257
03:54 1017 30.03 846 24.98 -6.7 20 91 -7.9 17.7 -6.508 -0.256
03:55 1017 30.03 846 24.98 -6.8 19.7 90 -8.2 17.3 -6.621 -0.261
03:56 1017 30.03 846 24.98 -6.9 19.6 90 -8.3 17.1 -6.689 -0.263
03:57 1017 30.03 846 24.98 -7 19.4 91 -8.3 17 -6.803 -0.268
03:58 1017 30.03 846 24.98 -7.1 19.3 91 -8.4 16.9 -6.871 -0.271
03:59 1017 30.03 846 24.98 -7.2 19 90 -8.6 16.5 -6.979 -0.275
04:00 1017 30.03 846 24.98 -7.4 18.7 90 -8.8 16.2 -7.13 -0.281
04:01 1017 30.03 846 24.98 -7.5 18.5 91 -8.7 16.3 -7.24 -0.285
04:02 1017 30.03 846 24.98 -7.5 18.6 91 -8.7 16.3 -7.27 -0.286
04:03 1017 30.03 846 24.98 -7.5 18.4 90 -8.9 16 -7.31 -0.288
04:04 1017 30.03 846 24.98 -7.6 18.3 91 -8.9 16 -7.34 -0.289
04:05 1017 30.03 846 24.98 -7.6 18.3 91 -8.9 16.1 -7.37 -0.29
04:06 1017 30.03 846 24.98 -7.6 18.4 91 -8.8 16.1 -7.36 -0.29
04:07 1017 30.03 846 24.98 -7.6 18.4 91 -8.8 16.1 -7.4 -0.291
04:08 1017 30.03 846 24.98 -7.6 18.3 90 -9 15.9 -7.42 -0.292
04:09 1017 30.03 846 24.98 -7.7 18.1 91 -9 15.9 -7.45 -0.293
04:10 1017 30.03 846 24.98 -7.7 18.2 91 -8.9 15.9 -7.5 -0.295
04:11 1017 30.03 846 24.98 -7.7 18.1 91 -8.9 15.9 -7.47 -0.294
04:12 1017 30.03 846 24.98 -7.6 18.2 91 -8.8 16.1 -7.43 -0.293
04:13 1017 30.03 846 24.98 -7.6 18.2 91 -8.8 16.1 -7.41 -0.292
04:14 1017 30.03 846 24.98 -7.6 18.3 91 -8.9 16 -7.41 -0.292
04:15 1017 30.03 846 24.98 -7.7 18.1 90 -9.1 15.6 -7.54 -0.297
04:16 1017 30.03 846 24.98 -7.9 17.9 91 -9.1 15.6 -7.63 -0.3
04:17 1017 30.03 846 24.98 -7.9 17.7 91 -9.2 15.5 -7.66 -0.302
04:18 1017 30.03 846 24.98 -8 17.6 90 -9.4 15.2 -7.8 -0.307
04:19 1017 30.03 846 24.98 -8.2 17.2 90 -9.6 14.7 -7.98 -0.314
04:20 1017 30.03 846 24.98 -8.4 17 92 -9.5 14.9 -8.05 -0.317
04:21 1017 30.03 846 24.98 -8.2 17.2 92 -9.3 15.2 -7.92 -0.312
04:22 1017 30.03 846 24.98 -8.2 17.3 91 -9.4 15 -7.93 -0.312
04:23 1017 30.03 846 24.98 -8.2 17.3 91 -9.4 15 -7.98 -0.314
04:24 1017 30.03 846 24.98 -8.2 17.2 91 -9.5 15 -7.97 -0.314
04:25 1017 30.03 846 24.98 -8.2 17.3 90 -9.5 14.9 -7.94 -0.313
04:26 1017 30.03 846 24.98 -8.2 17.3 90 -9.6 14.7 -7.94 -0.313
04:27 1017 30.03 846 24.98 -8.2 17.2 89 -9.7 14.5 -7.97 -0.314
04:28 1017 30.03 846 24.98 -8.2 17.3 90 -9.6 14.7 -7.98 -0.314
04:29 1017 30.03 846 24.98 -8.2 17.3 89 -9.6 14.7 -7.94 -0.313
04:30 1017 30.03 846 24.98 -8.2 17.2 88 -9.8 14.3 -8 -0.315
04:31 1017 30.03 846 24.98 -8.4 16.9 88 -10 14.1 -8.14 -0.32
04:32 1017 30.03 846 24.98 -8.5 16.7 88 -10.1 13.7 -8.26 -0.325
04:33 1017 30.03 846 24.98 -8.6 16.5 88 -10.2 13.7 -8.36 -0.329
04:34 1017 30.03 846 24.98 -8.7 16.4 88 -10.3 13.5 -8.41 -0.331
04:35 1017 30.03 846 24.98 -8.7 16.3 88 -10.3 13.4 -8.45 -0.333
04:36 1017 30.03 846 24.98 -8.7 16.3 89 -10.2 13.6 -8.48 -0.334
04:37 1017 30.03 846 24.98 -8.6 16.5 89 -10.2 13.6 -8.41 -0.331
04:38 1017 30.03 846 24.98 -8.6 16.5 88 -10.2 13.7 -8.4 -0.331
04:39 1017 30.03 846 24.98 -8.6 16.5 88 -10.3 13.5 -8.39 -0.33
04:40 1017 30.03 846 24.98 -8.7 16.3 88 -10.4 13.3 -8.45 -0.333
04:41 1017 30.03 846 24.98 -8.7 16.4 88 -10.3 13.5 -8.45 -0.333
04:42 1017 30.03 846 24.98 -8.7 16.4 88 -10.4 13.3 -8.48 -0.334
04:43 1017 30.03 846 24.98 -8.7 16.4 89 -10.2 13.6 -8.44 -0.332
04:44 1017 30.03 846 24.98 -8.5 16.7 89 -10 13.9 -8.32 -0.328
04:45 1017 30.03 846 24.98 -8.4 16.8 88 -10.1 13.7 -8.21 -0.323
04:46 1017 30.03 846 24.98 -8.6 16.6 86 -10.4 13.2 -8.3 -0.327
04:47 1017 30.03 846 24.98 -8.8 16.2 86 -10.7 12.8 -8.51 -0.335
04:48 1017 30.03 846 24.98 -9 15.8 87 -10.8 12.5 -8.75 -0.344
04:49 1017 30.03 846 24.98 -9.1 15.7 88 -10.7 12.8 -8.84 -0.348
04:50 1017 30.03 846 24.98 -9 15.9 88 -10.6 12.9 -8.77 -0.345
04:51 1017 30.03 846 24.98 -8.9 15.9 89 -10.5 13.1 -8.73 -0.344
04:52 1017 30.03 846 24.98 -8.9 15.9 88 -10.6 12.9 -8.69 -0.342
04:53 1017 30.03 846 24.98 -9.1 15.7 87 -10.9 12.5 -8.86 -0.349
04:54 1017 30.03 846 24.98 -9.2 15.4 86 -11.1 12 -8.98 -0.354
04:55 1017 30.03 846 24.98 -9.5 14.9 86 -11.4 11.6 -9.18 -0.361
04:56 1017 30.03 846 24.98 -9.6 14.7 87 -11.4 11.6 -9.33 -0.367
04:57 1017 30.03 846 24.98 -9.5 14.9 89 -11 12.2 -9.27 -0.365
04:58 1017 30.03 846 24.98 -9.2 15.5 89 -10.7 12.7 -9 -0.354
04:59 1017 30.03 846 24.98 -8.9 15.9 88 -10.5 13.1 -8.86 -0.349
05:00 1017 30.03 846 24.98 -8.8 16.2 88 -10.4 13.3 -8.68 -0.342
05:01 1017 30.03 846 24.98 -8.5 16.8 88 -10.1 13.9 -8.41 -0.331
05:02 1017 30.03 846 24.98 -8.1 17.4 87 -9.9 14.1 -8.2 -0.323
05:03 1017 30.03 846 24.98 -8.2 17.3 87 -10 14 -8.11 -0.319
05:04 1017 30.03 846 24.98 -8.1 17.4 88 -9.7 14.5 -8.14 -0.32
05:05 1017 30.03 846 24.98 -8.2 17.3 89 -9.7 14.6 -8.12 -0.32
05:06 1017 30.03 847 25.01 -8.4 17 90 -9.7 14.5 -8.27 -0.326
05:07 1017 30.03 847 25.01 -8.5 16.6 89 -10 14.1 -8.34 -0.328
05:08 1017 30.03 847 25.01 -8.7 16.4 90 -10 14 -8.42 -0.331
05:09 1017 30.03 847 25.01 -8.6 16.5 92 -9.7 14.5 -8.49 -0.334
05:10 1017 30.03 847 25.01 -8.6 16.5 93 -9.6 14.8 -8.45 -0.333
05:11 1017 30.03 847 25.01 -8.6 16.5 93 -9.6 14.8 -8.47 -0.333
05:12 1017 30.03 847 25.01 -8.6 16.5 93 -9.5 14.8 -8.4 -0.331
05:13 1017 30.03 847 25.01 -8.6 16.5 93 -9.5 14.9 -8.35 -0.329
05:14 1017 30.03 847 25.01 -8.6 16.6 94 -9.4 15 -8.36 -0.329
05:15 1017 30.03 847 25.01 -8.5 16.6 92 -9.6 14.8 -8.33 -0.328
05:16 1017 30.03 847 25.01 -8.4 16.8 93 -9.4 15.1 -8.32 -0.328
05:17 1017 30.03 847 25.01 -8.4 16.8 94 -9.3 15.3 -8.28 -0.326
05:18 1017 30.03 847 25.01 -8.4 16.9 94 -9.2 15.5 -8.26 -0.325
05:19 1017 30.03 847 25.01 -8.4 16.8 94 -9.2 15.4 -8.24 -0.324
05:20 1017 30.03 847 25.01 -8.4 16.9 94 -9.2 15.5 -8.14 -0.32
05:21 1017 30.03 847 25.01 -8.3 17 95 -9.1 15.7 -8.08 -0.318
05:22 1017 30.03 847 25.01 -8.3 17 95 -9.1 15.7 -7.98 -0.314
05:23 1017 30.03 847 25.01 -8.2 17.2 94 -9 15.9 -7.9 -0.311
05:24 1017 30.03 847 25.01 -8.2 17.2 94 -9.1 15.7 -7.93 -0.312
05:25 1017 30.03 847 25.01 -8.2 17.3 93 -9.1 15.6 -7.94 -0.313
05:26 1017 30.03 847 25.01 -8.2 17.2 93 -9.1 15.6 -7.91 -0.311
05:27 1017 30.03 847 25.01 -8.2 17.3 93 -9.1 15.7 -7.85 -0.309
05:28 1017 30.03 847 25.01 -8.1 17.4 94 -9 15.8 -7.73 -0.304
05:29 1017 30.03 847 25.01 -8 17.6 94 -8.9 16 -7.58 -0.298
05:30 1017 30.03 847 25.01 -7.9 17.8 94 -8.7 16.3 -7.52 -0.296
05:31 1017 30.03 847 25.01 -7.8 18 93 -8.7 16.4 -7.43 -0.293
05:32 1017 30.03 847 25.01 -7.8 18.1 93 -8.7 16.4 -7.37 -0.29
05:33 1017 30.03 847 25.01 -7.7 18.2 94 -8.5 16.7 -7.31 -0.288
05:34 1017 30.03 847 25.01 -7.7 18.2 94 -8.5 16.7 -7.32 -0.288
05:35 1017 30.03 847 25.01 -7.7 18.2 93 -8.7 16.4 -7.3 -0.287
05:36 1017 30.03 847 25.01 -7.6 18.3 92 -8.7 16.3 -7.27 -0.286
05:37 1017 30.03 847 25.01 -7.6 18.3 92 -8.7 16.3 -7.28 -0.287
05:38 1017 30.03 847 25.01 -7.6 18.4 92 -8.6 16.4 -7.25 -0.285
05:39 1017 30.03 847 25.01 -7.6 18.4 93 -8.6 16.6 -7.22 -0.284
05:40 1017 30.03 847 25.01 -7.6 18.4 93 -8.5 16.6 -7.19 -0.283
05:41 1017 30.03 847 25.01 -7.5 18.4 93 -8.5 16.7 -7.23 -0.285
05:42 1017 30.03 847 25.01 -7.6 18.4 93 -8.5 16.6 -7.26 -0.286
05:43 1018 30.06 847 25.01 -7.6 18.3 93 -8.5 16.6 -7.23 -0.285
05:44 1018 30.06 847 25.01 -7.6 18.4 93 -8.5 16.8 -7.23 -0.285
05:45 1018 30.06 847 25.01 -7.6 18.3 93 -8.5 16.7 -7.27 -0.286
05:46 1018 30.06 847 25.01 -7.6 18.3 93 -8.6 16.6 -7.28 -0.287
05:47 1018 30.06 847 25.01 -7.7 18.2 91 -8.9 15.9 -7.36 -0.29
05:48 1018 30.06 847 25.01 -7.7 18.2 91 -8.9 16 -7.42 -0.292
05:49 1018 30.06 847 25.01 -7.7 18.1 92 -8.9 16 -7.43 -0.293
05:50 1018 30.06 847 25.01 -7.7 18.1 92 -8.9 16 -7.43 -0.293
05:51 1018 30.06 847 25.01 -7.7 18.1 91 -8.9 16 -7.46 -0.294
05:52 1018 30.06 847 25.01 -7.7 18.1 91 -8.9 16 -7.44 -0.293
05:53 1018 30.06 847 25.01 -7.7 18.2 91 -8.9 16 -7.34 -0.289
05:54 1018 30.06 847 25.01 -7.6 18.3 91 -8.8 16.1 -7.26 -0.286
05:55 1018 30.06 847 25.01 -7.6 18.4 91 -8.8 16.1 -7.25 -0.285
05:56 1018 30.06 847 25.01 -7.6 18.3 91 -8.8 16.2 -7.22 -0.284
05:57 1018 30.06 847 25.01 -7.6 18.3 92 -8.7 16.3 -7.23 -0.285
05:58 1018 30.06 847 25.01 -7.6 18.3 92 -8.7 16.4 -7.28 -0.287
05:59 1018 30.06 847 25.01 -7.6 18.3 92 -8.7 16.4 -7.3 -0.287
06:00 1018 30.06 847 25.01 -7.7 18.2 92 -8.7 16.3 -7.32 -0.288
06:01 1018 30.06 847 25.01 -7.6 18.2 93 -8.6 16.5 -7.31 -0.288
06:02 1018 30.06 847 25.01 -7.7 18.2 92 -8.7 16.4 -7.32 -0.288
06:03 1018 30.06 847 25.01 -7.7 18.2 91 -8.9 16.1 -7.37 -0.29
06:04 1018 30.06 847 25.01 -7.6 18.4 91 -8.8 16.2 -7.35 -0.289
06:05 1018 30.06 847 25.01 -7.6 18.4 92 -8.6 16.5 -7.28 -0.287
06:06 1018 30.06 847 25.01 -7.6 18.4 93 -8.6 16.6 -7.24 -0.285
06:07 1018 30.06 847 25.01 -7.6 18.3 91 -8.8 16.2 -7.22 -0.284
06:08 1018 30.06 847 25.01 -7.5 18.6 90 -8.9 16 -7.21 -0.284
06:09 1018 30.06 847 25.01 -7.3 18.8 88 -9 15.9 -7.2 -0.283
06:10 1018 30.06 847 25.01 -7.2 19.1 87 -8.9 16 -7.08 -0.279
06:11 1018 30.06 847 25.01 -7 19.4 87 -8.9 16.1 -7.04 -0.277
06:12 1018 30.06 847 25.01 -6.9 19.6 86 -8.9 16 -6.905 -0.272
06:13 1018 30.06 847 25.01 -6.8 19.7 85 -8.9 16.1 -6.86 -0.27
06:14 1018 30.06 847 25.01 -6.8 19.7 87 -8.7 16.4 -6.814 -0.268
06:15 1018 30.06 847 25.01 -6.8 19.7 85 -8.9 16 -6.803 -0.268
06:16 1018 30.06 847 25.01 -6.7 19.9 84 -8.9 16 -6.723 -0.265
06:17 1018 30.06 847 25.01 -6.6 20.1 84 -8.8 16.1 -6.689 -0.263
06:18 1018 30.06 847 25.01 -6.6 20.1 84 -8.8 16.1 -6.576 -0.259
06:19 1018 30.06 847 25.01 -6.5 20.3 84 -8.8 16.1 -6.491 -0.256
06:20 1018 30.06 847 25.01 -6.5 20.3 84 -8.8 16.1 -6.457 -0.254
06:21 1018 30.06 847 25.01 -6.5 20.3 84 -8.8 16.2 -6.406 -0.252
06:22 1018 30.06 847 25.01 -6.5 20.2 84 -8.9 16 -6.445 -0.254
06:23 1018 30.06 847 25.01 -6.5 20.3 84 -8.8 16.2 -6.423 -0.253
06:24 1018 30.06 847 25.01 -6.5 20.2 84 -8.9 16.1 -6.423 -0.253
06:25 1018 30.06 847 25.01 -6.5 20.3 83 -8.9 16 -6.428 -0.253
06:26 1018 30.06 847 25.01 -6.5 20.3 84 -8.8 16.2 -6.434 -0.253
06:27 1018 30.06 847 25.01 -6.5 20.3 84 -8.8 16.1 -6.4 -0.252
06:28 1018 30.06 847 25.01 -6.5 20.3 84 -8.8 16.2 -6.389 -0.252
06:29 1018 30.06 847 25.01 -6.6 20.2 85 -8.8 16.2 -6.4 -0.252
06:30 1018 30.06 847 25.01 -6.6 20.1 85 -8.7 16.3 -6.491 -0.256
06:31 1018 30.06 847 25.01 -6.7 20 85 -8.8 16.2 -6.548 -0.258
06:32 1018 30.06 847 25.01 -6.7 20 86 -8.7 16.3 -6.57 -0.259
06:33 1018 30.06 847 25.01 -6.7 19.9 86 -8.7 16.4 -6.627 -0.261
06:34 1018 30.06 847 25.01 -6.7 19.9 87 -8.5 16.8 -6.61 -0.26
06:35 1018 30.06 847 25.01 -6.8 19.8 90 -8.2 17.2 -6.633 -0.261
06:36 1018 30.06 847 25.01 -6.9 19.6 89 -8.4 16.9 -6.695 -0.264
06:37 1018 30.06 847 25.01 -6.9 19.5 91 -8.2 17.2 -6.706 -0.264
06:38 1018 30.06 847 25.01 -7 19.4 91 -8.2 17.2 -6.701 -0.264
06:39 1018 30.06 847 25.01 -7.1 19.3 91 -8.3 17 -6.723 -0.265
06:40 1018 30.06 847 25.01 -7.1 19.3 91 -8.3 17.1 -6.735 -0.265
06:41 1018 30.06 847 25.01 -7 19.4 91 -8.2 17.2 -6.706 -0.264
06:42 1018 30.06 847 25.01 -7 19.3 91 -8.3 17 -6.706 -0.264
06:43 1018 30.06 847 25.01 -7.1 19.3 89 -8.5 16.6 -6.729 -0.265
06:44 1018 30.06 847 25.01 -7.1 19.3 91 -8.3 17 -6.763 -0.266
06:45 1018 30.06 847 25.01 -7.1 19.2 91 -8.4 16.9 -6.791 -0.267
06:46 1018 30.06 847 25.01 -7.1 19.2 89 -8.6 16.5 -6.814 -0.268
06:47 1018 30.06 847 25.01 -7.1 19.2 90 -8.4 16.8 -6.837 -0.269
06:48 1018 30.06 847 25.01 -7.1 19.1 91 -8.3 17 -6.815 -0.268
06:49 1018 30.06 847 25.01 -7.2 19.1 91 -8.4 16.8 -6.787 -0.267
06:50 1018 30.06 847 25.01 -7.2 19.1 91 -8.4 16.9 -6.804 -0.268
06:51 1018 30.06 847 25.01 -7.2 19.1 92 -8.3 17 -6.788 -0.267
06:52 1018 30.06 847 25.01 -7.2 19.1 92 -8.3 17.1 -6.776 -0.267
06:53 1018 30.06 847 25.01 -7.1 19.2 90 -8.5 16.7 -6.771 -0.267
06:54 1018 30.06 847 25.01 -7.1 19.3 88 -8.7 16.3 -6.77 -0.267
06:55 1018 30.06 847 25.01 -7 19.5 87 -8.8 16.2 -6.742 -0.265
06:56 1018 30.06 847 25.01 -6.8 19.8 86 -8.8 16.2 -6.64 -0.261
06:57 1018 30.06 847 25.01 -6.7 20 85 -8.8 16.2 -6.544 -0.258
06:58 1018 30.06 847 25.01 -6.6 20.1 85 -8.8 16.2 -6.51 -0.256
06:59 1018 30.06 847 25.01 -6.5 20.2 84 -8.8 16.2 -6.465 -0.255
07:00 1018 30.06 847 25.01 -6.5 20.3 85 -8.7 16.4 -6.454 -0.254
07:01 1018 30.06 847 25.01 -6.5 20.3 85 -8.6 16.5 -6.471 -0.255
07:02 1018 30.06 847 25.01 -6.5 20.2 86 -8.5 16.6 -6.454 -0.254
07:03 1018 30.06 847 25.01 -6.6 20.2 86 -8.5 16.7 -6.455 -0.254
07:04 1018 30.06 847 25.01 -6.6 20 86 -8.6 16.6 -6.455 -0.254
07:05 1018 30.06 847 25.01 -6.7 20 86 -8.6 16.5 -6.494 -0.256
07:06 1018 30.06 847 25.01 -6.6 20.1 86 -8.6 16.5 -6.45 -0.254
07:07 1018 30.06 847 25.01 -6.6 20.1 85 -8.7 16.4 -6.495 -0.256
07:08 1018 30.06 847 25.01 -6.6 20.2 85 -8.7 16.4 -6.478 -0.255
07:09 1018 30.06 847 25.01 -6.6 20.2 85 -8.7 16.3 -6.376 -0.251
07:10 1018 30.06 847 25.01 -6.5 20.3 85 -8.6 16.5 -6.308 -0.248
07:11 1018 30.06 847 25.01 -6.4 20.4 85 -8.5 16.6 -6.302 -0.248
07:12 1018 30.06 847 25.01 -6.5 20.4 85 -8.6 16.5 -6.32 -0.249
07:13 1018 30.06 847 25.01 -6.5 20.4 85 -8.6 16.5 -6.274 -0.247
07:14 1018 30.06 847 25.01 -6.4 20.5 85 -8.5 16.6 -6.252 -0.246
07:15 1018 30.06 847 25.01 -6.4 20.5 85 -8.5 16.7 -6.212 -0.245
07:16 1018 30.06 847 25.01 -6.4 20.5 85 -8.5 16.7 -6.212 -0.245
07:17 1018 30.06 847 25.01 -6.4 20.5 84 -8.6 16.5 -6.167 -0.243
07:18 1018 30.06 847 25.01 -6.3 20.7 84 -8.5 16.6 -6.122 -0.241
07:19 1018 30.06 847 25.01 -6.2 20.8 84 -8.5 16.8 -6.093 -0.24
07:20 1018 30.06 847 25.01 -6.3 20.7 85 -8.5 16.8 -6.099 -0.24
07:21 1018 30.06 847 25.01 -6.3 20.7 85 -8.5 16.8 -6.059 -0.239
07:22 1018 30.06 847 25.01 -6.2 20.8 85 -8.4 16.8 -6.065 -0.239
07:23 1018 30.06 847 25.01 -6.2 20.8 84 -8.5 16.7 -6.037 -0.238
07:24 1018 30.06 847 25.01 -6.2 20.8 84 -8.5 16.7 -5.991 -0.236
07:25 1018 30.06 847 25.01 -6.1 20.9 83 -8.5 16.7 -6.02 -0.237
07:26 1018 30.06 847 25.01 -6.1 20.9 83 -8.5 16.6 -5.997 -0.236
07:27 1018 30.06 847 25.01 -6.1 21 84 -8.4 16.9 -5.997 -0.236
07:28 1018 30.06 847 25.01 -6.1 21 84 -8.4 16.8 -5.969 -0.235
07:29 1018 30.06 847 25.01 -6.1 21.1 83 -8.4 16.8 -5.946 -0.234
07:30 1018 30.06 847 25.01 -6.1 21.1 83 -8.5 16.7 -5.958 -0.235
07:31 1018 30.06 847 25.01 -6.1 21.1 83 -8.5 16.7 -5.941 -0.234
07:32 1018 30.06 847 25.01 -6 21.1 83 -8.5 16.7 -5.895 -0.232
07:33 1018 30.06 847 25.01 -6 21.2 83 -8.4 16.9 -5.89 -0.232
07:34 1018 30.06 847 25.01 -6 21.2 84 -8.4 17 -5.844 -0.23
07:35 1018 30.06 847 25.01 -6 21.2 84 -8.3 17.1 -5.805 -0.229
07:36 1018 30.06 847 25.01 -6 21.2 84 -8.3 17.1 -5.844 -0.23
07:37 1018 30.06 847 25.01 -6 21.2 84 -8.3 17.1 -5.81 -0.229
07:38 1018 30.06 847 25.01 -6 21.2 84 -8.3 17 -5.861 -0.231
07:39 1018 30.06 847 25.01 -6 21.2 84 -8.2 17.2 -5.81 -0.229
07:40 1018 30.06 847 25.01 -6 21.2 84 -8.3 17 -5.839 -0.23
07:41 1018 30.06 847 25.01 -6 21.2 84 -8.2 17.2 -5.822 -0.229
07:42 1018 30.06 847 25.01 -6 21.1 84 -8.2 17.2 -5.827 -0.229
07:43 1018 30.06 847 25.01 -6 21.1 84 -8.3 17.1 -5.816 -0.229
07:44 1018 30.06 847 25.01 -6 21.2 84 -8.3 17 -5.856 -0.231
07:45 1018 30.06 847 25.01 -6 21.2 83 -8.4 16.9 -5.81 -0.229
07:46 1018 30.06 847 25.01 -6 21.3 83 -8.4 16.8 -5.776 -0.227
07:47 1018 30.06 847 25.01 -5.9 21.4 82 -8.4 16.8 -5.771 -0.227
07:48 1018 30.06 847 25.01 -5.9 21.5 82 -8.4 16.9 -5.771 -0.227
07:49 1018 30.06 847 25.01 -5.9 21.5 82 -8.5 16.8 -5.731 -0.226
07:50 1018 30.06 847 25.01 -5.9 21.5 82 -8.5 16.8 -5.725 -0.225
07:51 1018 30.06 847 25.01 -5.8 21.5 82 -8.5 16.8 -5.691 -0.224
07:52 1018 30.06 847 25.01 -5.8 21.6 82 -8.4 16.9 -5.674 -0.223
07:53 1018 30.06 847 25.01 -5.8 21.6 82 -8.4 16.9 -5.68 -0.224
07:54 1018 30.06 847 25.01 -5.8 21.6 82 -8.5 16.8 -5.663 -0.223
07:55 1018 30.06 847 25.01 -5.7 21.7 81 -8.4 16.8 -5.68 -0.224
07:56 1018 30.06 847 25.01 -5.8 21.6 81 -8.5 16.8 -5.674 -0.223
07:57 1018 30.06 847 25.01 -5.7 21.7 81 -8.5 16.7 -5.623 -0.221
07:58 1018 30.06 847 25.01 -5.7 21.7 81 -8.4 16.9 -5.612 -0.221
07:59 1018 30.06 847 25.01 -5.7 21.7 82 -8.4 16.9 -5.578 -0.22
08:00 1018 30.06 847 25.01 -5.7 21.8 81 -8.4 16.8 -5.538 -0.218
08:01 1018 30.06 847 25.01 -5.6 21.8 81 -8.4 16.9 -5.516 -0.217
08:02 1018 30.06 847 25.01 -5.6 21.9 81 -8.3 17 -5.483 -0.216
08:03 1018 30.06 847 25.01 -5.6 22 81 -8.3 17.1 -5.437 -0.214
08:04 1018 30.06 847 25.01 -5.6 22 81 -8.3 17 -5.421 -0.213
08:05 1018 30.06 847 25.01 -5.5 22.1 80 -8.4 16.9 -5.41 -0.213
08:06 1018 30.06 847 25.01 -5.5 22.2 81 -8.3 17.1 -5.325 -0.21
08:07 1018 30.06 847 25.01 -5.4 22.2 80 -8.3 17 -5.308 -0.209
08:08 1018 30.06 847 25.01 -5.4 22.3 81 -8.2 17.3 -5.246 -0.207
08:09 1018 30.06 847 25.01 -5.3 22.4 81 -8.1 17.5 -5.178 -0.204
08:10 1018 30.06 847 25.01 -5.3 22.4 81 -8.1 17.4 -5.161 -0.203
08:11 1018 30.06 847 25.01 -5.3 22.5 80 -8.1 17.3 -5.156 -0.203
08:12 1018 30.06 847 25.01 -5.2 22.6 80 -8.2 17.3 -5.094 -0.201
08:13 1018 30.06 847 25.01 -5.2 22.7 79 -8.3 17.1 -5.049 -0.199
08:14 1018 30.06 847 25.01 -5.2 22.7 78 -8.4 16.9 -5.066 -0.199
08:15 1018 30.06 847 25.01 -5.1 22.8 79 -8.2 17.2 -5.043 -0.199
08:16 1018 30.06 847 25.01 -5.1 22.8 79 -8.2 17.2 -5.038 -0.198
08:17 1018 30.06 847 25.01 -5.1 22.8 79 -8.2 17.3 -5.049 -0.199
08:18 1018 30.06 847 25.01 -5.1 22.7 79 -8.2 17.2 -5.032 -0.198
08:19 1018 30.06 847 25.01 -5.1 22.8 78 -8.4 16.9 -5.004 -0.197
08:20 1018 30.06 847 25.01 -5.1 22.9 79 -8.2 17.2 -4.976 -0.196
08:21 1018 30.06 847 25.01 -5.1 22.9 79 -8.2 17.3 -4.987 -0.196
08:22 1018 30.06 847 25.01 -5.1 22.9 79 -8.2 17.2 -4.936 -0.194
08:23 1018 30.06 847 25.01 -5.1 22.9 79 -8.2 17.2 -4.948 -0.195
08:24 1018 30.06 848 25.04 -5.1 22.9 79 -8.2 17.2 -4.914 -0.193
08:25 1018 30.06 848 25.04 -5 22.9 78 -8.3 17.1 -4.903 -0.193
08:26 1018 30.06 848 25.04 -5.1 22.9 79 -8.1 17.4 -4.921 -0.194
08:27 1018 30.06 848 25.04 -5 22.9 80 -8 17.7 -4.949 -0.195
08:28 1018 30.06 847 25.01 -5 22.9 78 -8.2 17.2 -4.865 -0.192
08:29 1018 30.06 847 25.01 -5 23 80 -8 17.7 -4.814 -0.19
08:30 1018 30.06 847 25.01 -5 23 79 -8 17.6 -4.78 -0.188
08:31 1018 30.06 848 25.04 -5 23 80 -7.9 17.8 -4.707 -0.185
08:32 1018 30.06 848 25.04 -5 23.1 81 -7.8 17.9 -4.571 -0.18
08:33 1018 30.06 848 25.04 -5 23.1 80 -8 17.7 -4.566 -0.18
08:34 1018 30.06 848 25.04 -4.9 23.1 81 -7.7 18.2 -4.515 -0.178
08:35 1018 30.06 848 25.04 -4.9 23.1 82 -7.6 18.4 -4.413 -0.174
08:36 1018 30.06 848 25.04 -4.9 23.1 82 -7.5 18.5 -4.306 -0.17
08:37 1018 30.06 848 25.04 -4.9 23.1 83 -7.4 18.7 -4.272 -0.168
08:38 1018 30.06 848 25.04 -4.9 23.1 83 -7.4 18.6 -4.176 -0.164
08:39 1018 30.06 848 25.04 -4.9 23.2 84 -7.2 19 -4.096 -0.161
08:40 1018 30.06 848 25.04 -4.9 23.2 84 -7.2 19.1 -4.04 -0.159
08:41 1018 30.06 848 25.04 -4.8 23.4 85 -6.9 19.5 -3.961 -0.156
08:42 1018 30.06 848 25.04 -4.7 23.5 85 -6.9 19.6 -3.887 -0.153
08:43 1018 30.06 848 25.04 -4.7 23.6 86 -6.6 20.1 -3.819 -0.15
08:44 1018 30.06 848 25.04 -4.5 23.8 87 -6.4 20.4 -3.808 -0.15
08:45 1018 30.06 848 25.04 -4.5 23.9 87 -6.4 20.5 -3.751 -0.148
08:46 1018 30.06 848 25.04 -4.4 24.1 87 -6.2 20.8 -3.729 -0.147
08:47 1019 30.09 848 25.04 -4.4 24.1 87 -6.3 20.7 -3.718 -0.146
08:48 1019 30.09 848 25.04 -4.3 24.2 86 -6.3 20.6 -3.723 -0.147
08:49 1019 30.09 848 25.04 -4.3 24.3 86 -6.3 20.7 -3.656 -0.144
08:50 1019 30.09 848 25.04 -4.2 24.4 86 -6.2 20.8 -3.633 -0.143
08:51 1019 30.09 848 25.04 -4.2 24.4 86 -6.2 20.8 -3.605 -0.142
08:52 1019 30.09 848 25.04 -4.2 24.5 86 -6.2 20.9 -3.559 -0.14
08:53 1019 30.09 848 25.04 -4.1 24.7 86 -6 21.2 -3.514 -0.138
08:54 1019 30.09 848 25.04 -4 24.8 87 -5.9 21.4 -3.378 -0.133
08:55 1019 30.09 848 25.04 -3.9 25 86 -5.9 21.4 -3.236 -0.127
08:56 1019 30.09 848 25.04 -3.8 25.2 86 -5.7 21.7 -3.078 -0.121
08:57 1019 30.09 848 25.04 -3.7 25.3 88 -5.5 22.1 -2.942 -0.116
08:58 1019 30.09 848 25.04 -3.5 25.6 87 -5.4 22.2 -2.828 -0.111
08:59 1019 30.09 848 25.04 -3.4 25.8 87 -5.2 22.6 -2.664 -0.105
09:00 1019 30.09 848 25.04 -3.3 26 81 -6.1 21.1 -2.471 -0.097
09:01 1019 30.09 848 25.04 -3.4 26 78 -6.7 19.9 -2.358 -0.093
09:02 1019 30.09 848 25.04 -3.4 25.9 83 -5.9 21.4 -2.33 -0.092
09:03 1019 30.09 848 25.04 -3.3 26.1 80 -6.3 20.7 -2.199 -0.087
09:04 1019 30.09 848 25.04 -3.2 26.2 81 -6.1 21 -2.029 -0.08
09:05 1019 30.09 848 25.04 -3.2 26.2 83 -5.6 21.9 -1.933 -0.076
09:06 1019 30.09 848 25.04 -3.1 26.5 85 -5.2 22.6 -1.763 -0.069
09:07 1019 30.09 848 25.04 -2.9 26.8 83 -5.3 22.4 -1.655 -0.065
09:08 1019 30.09 848 25.04 -2.8 26.9 85 -5.1 22.9 -1.678 -0.066
09:09 1019 30.09 848 25.04 -2.7 27.2 85 -4.9 23.3 -1.486 -0.059
09:10 1019 30.09 848 25.04 -2.5 27.4 86 -4.5 23.9 -1.396 -0.055
09:11 1019 30.09 848 25.04 -2.3 27.9 79 -5.5 22.1 -1.169 -0.046
09:12 1019 30.09 848 25.04 -2.3 27.9 71 -6.8 19.8 -1.221 -0.048
09:13 1019 30.09 848 25.04 -2.5 27.5 71 -7.1 19.2 -1.629 -0.064
09:14 1019 30.09 848 25.04 -2.7 27.2 72 -7.1 19.2 -1.935 -0.076
09:15 1019 30.09 848 25.04 -2.8 26.9 70 -7.6 18.3 -2.231 -0.088
09:16 1019 30.09 848 25.04 -3 26.6 70 -7.8 18 -2.571 -0.101
09:17 1019 30.09 848 25.04 -3.2 26.2 68 -8.3 17.1 -2.854 -0.112
09:18 1019 30.09 848 25.04 -3.3 26 70 -8.1 17.4 -3.156 -0.124
09:19 1019 30.09 848 25.04 -3.5 25.8 72 -7.7 18.1 -3.201 -0.126
09:20 1019 30.09 848 25.04 -3.4 25.8 73 -7.5 18.5 -3.099 -0.122
09:21 1019 30.09 848 25.04 -3.3 26 74 -7.3 18.9 -2.914 -0.115
09:22 1019 30.09 848 25.04 -3.2 26.2 73 -7.4 18.8 -2.829 -0.111
09:23 1019 30.09 848 25.04 -3.2 26.2 74 -7.3 18.9 -2.857 -0.112
09:24 1019 30.09 848 25.04 -3.2 26.3 75 -7.1 19.3 -2.824 -0.111
09:25 1019 30.09 848 25.04 -3.1 26.4 75 -6.9 19.6 -2.688 -0.106
09:26 1019 30.09 848 25.04 -3 26.7 81 -5.8 21.6 -2.541 -0.1
09:27 1019 30.09 848 25.04 -2.7 27.1 81 -5.5 22 -2.31 -0.091
09:28 1019 30.09 848 25.04 -2.6 27.3 74 -6.6 20.1 -1.992 -0.078
09:29 1019 30.09 848 25.04 -2.7 27.2 70 -7.4 18.7 -1.732 -0.068
09:30 1019 30.09 848 25.04 -2.8 27 72 -7.1 19.2 -1.585 -0.062
09:31 1019 30.09 848 25.04 -2.8 26.9 74 -6.8 19.8 -1.517 -0.06
09:32 1019 30.09 848 25.04 -2.9 26.8 78 -6.2 20.8 -1.427 -0.056
09:33 1019 30.09 848 25.04 -2.7 27.1 81 -5.5 22.1 -1.308 -0.051
09:34 1019 30.09 848 25.04 -2.6 27.4 82 -5.3 22.5 -1.206 -0.047
09:35 1019 30.09 848 25.04 -2.3 27.8 81 -5.2 22.6 -1.065 -0.042
09:36 1019 30.09 848 25.04 -2.2 28.1 80 -5.3 22.5 -0.969 -0.038
09:37 1019 30.09 848 25.04 -2.1 28.3 80 -5.1 22.9 -0.878 -0.035
09:38 1019 30.09 848 25.04 -2 28.5 78 -5.2 22.6 -0.788 -0.031
09:39 1019 30.09 848 25.04 -1.9 28.6 78 -5.2 22.7 -0.811 -0.032
09:40 1019 30.09 848 25.04 -1.9 28.7 80 -4.8 23.3 -0.692 -0.027
09:41 1019 30.09 848 25.04 -1.7 28.9 72 -6.1 21 -0.556 -0.022
09:42 1019 30.09 848 25.04 -1.8 28.8 69 -6.7 20 -0.414 -0.016
09:43 1019 30.09 848 25.04 -2 28.5 68 -7.1 19.3 -0.579 -0.023
09:44 1019 30.09 848 25.04 -2.2 28 70 -7 19.4 -0.885 -0.035
09:45 1019 30.09 848 25.04 -2.3 27.8 71 -6.9 19.5 -1.168 -0.046
09:46 1019 30.09 848 25.04 -2.4 27.7 68 -7.4 18.6 -1.321 -0.052
09:47 1019 30.09 848 25.04 -2.5 27.5 71 -7.1 19.2 -1.487 -0.059
09:48 1019 30.09 848 25.04 -2.5 27.5 72 -6.8 19.8 -1.487 -0.059
09:49 1019 30.09 848 25.04 -2.4 27.7 71 -6.9 19.5 -1.232 -0.049
09:50 1019 30.09 848 25.04 -2.4 27.7 71 -6.9 19.6 -1.018 -0.04
09:51 1019 30.09 848 25.04 -2.3 27.8 69 -7.3 18.9 -0.831 -0.033
09:52 1019 30.09 848 25.04 -2.4 27.7 68 -7.6 18.3 -0.724 -0.029
09:53 1019 30.09 848 25.04 -2.4 27.7 68 -7.6 18.3 -0.611 -0.024
09:54 1019 30.09 848 25.04 -2.4 27.7 68 -7.6 18.4 -0.662 -0.026
09:55 1019 30.09 848 25.04 -2.4 27.7 68 -7.6 18.3 -0.538 -0.021
09:56 1019 30.09 848 25.04 -2.3 27.9 67 -7.5 18.5 -0.369 -0.015
09:57 1019 30.09 848 25.04 -2.2 28.1 73 -6.3 20.7 -0.177 -0.007
09:58 1019 30.09 848 25.04 -1.8 28.7 75 -5.6 21.9 -0.098 -0.004
09:59 1019 30.09 848 25.04 -1.6 29.2 75 -5.4 22.3 -0.026 -0.001
10:00 1019 30.09 848 25.04 -1.3 29.6 78 -4.6 23.6 0.172 0.007
10:01 1019 30.09 848 25.04 -1.1 29.9 78 -4.5 23.9 0.308 0.012
10:02 1019 30.09 848 25.04 -1 30.1 73 -5.3 22.4 0.415 0.016
10:03 1019 30.09 848 25.04 -1.1 30 71 -5.7 21.7 0.483 0.019
10:04 1019 30.09 848 25.04 -1.2 29.9 73 -5.5 22.1 0.499 0.02
10:05 1019 30.09 848 25.04 -1.2 29.9 77 -4.6 23.7 0.555 0.022
10:06 1019 30.09 848 25.04 -1.1 30 78 -4.4 24.1 0.612 0.024
10:07 1019 30.09 848 25.04 -1 30.2 71 -5.7 21.8 0.583 0.023
10:08 1019 30.09 848 25.04 -1 30.2 74 -5 23.1 0.407 0.016
10:09 1019 30.09 848 25.04 -0.9 30.3 77 -4.4 24 0.294 0.012
10:10 1019 30.09 848 25.04 -0.7 30.7 77 -4.2 24.4 0.316 0.012
10:11 1019 30.09 848 25.04 -0.6 30.9 81 -3.6 25.6 0.344 0.014
10:12 1019 30.09 848 25.04 -0.5 31.1 73 -4.8 23.4 0.378 0.015
10:13 1019 30.09 848 25.04 -0.5 31.1 75 -4.4 24 0.23 0.009
10:14 1019 30.09 848 25.04 -0.4 31.2 77 -4 24.8 0.258 0.01
10:15 1019 30.09 848 25.04 -0.4 31.3 67 -5.9 21.4 0.253 0.01
10:16 1019 30.09 848 25.04 -0.4 31.3 73 -4.6 23.7 -0.037 -0.001
10:17 1019 30.09 848 25.04 -0.4 31.2 71 -5 23 -0.163 -0.006
10:18 1019 30.09 848 25.04 -0.4 31.3 69 -5.3 22.4 -0.361 -0.014
10:19 1019 30.09 848 25.04 -0.5 31.2 69 -5.5 22 -0.537 -0.021
10:20 1019 30.09 848 25.04 -0.5 31.2 74 -4.5 23.9 -0.419 -0.016
10:21 1019 30.09 848 25.04 -0.2 31.6 74 -4.4 24.1 -0.119 -0.005
10:22 1019 30.09 848 25.04 0.1 32.2 71 -4.6 23.7 -0.012 -0
10:23 1019 30.09 848 25.04 0.2 32.4 63 -6 21.1 -0.12 -0.005
10:24 1019 30.09 848 25.04 0.2 32.3 72 -4.2 24.4 -0.205 -0.008
10:25 1019 30.09 848 25.04 0.2 32.3 65 -5.6 21.9 -0.188 -0.007
10:26 1019 30.09 848 25.04 0.2 32.3 70 -4.6 23.6 -0.478 -0.019
10:27 1019 30.09 848 25.04 0.2 32.3 79 -3 26.5 -0.263 -0.01
10:28 1019 30.09 848 25.04 0.3 32.5 79 -2.9 26.8 0.065 0.003
10:29 1019 30.09 848 25.04 0.5 33 80 -2.6 27.4 0.364 0.014
10:30 1019 30.09 848 25.04 0.6 33.1 72 -3.8 25.2 0.761 0.03
10:31 1019 30.09 848 25.04 0.6 33 71 -4.2 24.5 1.026 0.04
10:32 1019 30.09 848 25.04 0.4 32.8 78 -3 26.5 1.235 0.049
10:33 1019 30.09 848 25.04 0.5 32.9 72 -4 24.7 1.303 0.051
10:34 1019 30.09 848 25.04 0.7 33.2 77 -3 26.7 1.194 0.047
10:35 1019 30.09 848 25.04 0.9 33.5 76 -3 26.6 1.301 0.051
10:36 1019 30.09 848 25.04 0.9 33.6 62 -5.5 22.1 0.967 0.038
10:37 1019 30.09 848 25.04 0.4 32.8 60 -6.4 20.6 0.196 0.008
10:38 1019 30.09 848 25.04 -0.2 31.7 63 -6.5 20.3 -0.444 -0.017
10:39 1019 30.09 848 25.04 -0.6 31 64 -6.6 20.1 -0.812 -0.032
10:40 1019 30.09 848 25.04 -0.8 30.6 67 -6.2 20.8 -1.051 -0.041
10:41 1019 30.09 848 25.04 -0.9 30.4 64 -6.9 19.5 -1.261 -0.05
10:42 1019 30.09 848 25.04 -1 30.2 68 -6.1 21 -1.425 -0.056
10:43 1019 30.09 848 25.04 -1 30.3 66 -6.5 20.3 -1.375 -0.054
10:44 1019 30.09 848 25.04 -1 30.3 71 -5.6 22 -1.352 -0.053
10:45 1019 30.09 848 25.04 -0.9 30.3 73 -5.3 22.5 -1.171 -0.046
10:46 1019 30.09 848 25.04 -0.9 30.4 73 -5.1 22.9 -0.888 -0.035
10:47 1019 30.09 848 25.04 -0.8 30.5 75 -4.8 23.4 -0.628 -0.025
10:48 1019 30.09 848 25.04 -0.6 30.9 76 -4.3 24.2 -0.475 -0.019
10:49 1019 30.09 848 25.04 -0.4 31.3 74 -4.4 24 -0.339 -0.013
10:50 1019 30.09 848 25.04 -0.2 31.6 77 -3.8 25.2 -0.073 -0.003
10:51 1019 30.09 848 25.04 -0.1 31.9 62 -6.6 20.2 0.08 0.003
10:52 1019 30.09 848 25.04 -0.2 31.6 62 -6.6 20.1 -0.391 -0.015
10:53 1019 30.09 848 25.04 -0.4 31.4 60 -7.3 18.9 -0.662 -0.026
10:54 1019 30.09 848 25.04 -0.6 31 61 -7.3 18.9 -0.917 -0.036
10:55 1019 30.09 848 25.04 -0.7 30.7 63 -6.9 19.5 -1.099 -0.043
10:56 1019 30.09 848 25.04 -0.8 30.6 72 -5.2 22.6 -0.912 -0.036
10:57 1019 30.09 848 25.04 -0.6 31 65 -6.4 20.5 -0.765 -0.03
10:58 1019 30.09 848 25.04 -0.4 31.3 73 -4.7 23.6 -0.623 -0.025
10:59 1019 30.09 848 25.04 -0.1 31.8 66 -5.8 21.6 -0.442 -0.017
11:00 1019 30.09 848 25.04 0 32 62 -6.4 20.5 -0.357 -0.014
11:01 1019 30.09 848 25.04 -0 32 60 -6.8 19.8 -0.431 -0.017
11:02 1019 30.09 848 25.04 -0.2 31.6 60 -7.1 19.1 -0.68 -0.027
11:03 1019 30.09 848 25.04 -0.3 31.4 63 -6.5 20.2 -0.725 -0.029
11:04 1019 30.09 848 25.04 -0.3 31.4 65 -6 21.1 -0.691 -0.027
11:05 1019 30.09 848 25.04 -0.2 31.6 74 -4.2 24.4 -0.437 -0.017
11:06 1019 30.09 848 25.04 0.1 32.3 64 -5.8 21.5 -0.092 -0.004
11:07 1019 30.09 848 25.04 0.3 32.5 66 -5.2 22.6 -0.036 -0.001
11:08 1019 30.09 848 25.04 0.5 32.9 67 -5 23 0.224 0.009
11:09 1019 30.09 848 25.04 0.7 33.3 67 -4.7 23.5 0.524 0.021
11:10 1019 30.09 848 25.04 1 33.8 70 -3.8 25.1 0.824 0.032
11:11 1019 30.09 848 25.04 1.2 34.2 59 -6 21.2 0.858 0.034
11:12 1019 30.09 848 25.04 1 33.8 68 -4.3 24.3 0.67 0.026
11:13 1019 30.09 848 25.04 1 33.9 72 -3.4 25.8 0.84 0.033
11:14 1019 30.09 848 25.04 1.1 34.1 70 -3.7 25.3 1.077 0.042
11:15 1019 30.09 848 25.04 1.2 34.1 73 -3.2 26.3 1.258 0.05
11:16 1019 30.09 848 25.04 1.3 34.4 72 -3.2 26.3 1.581 0.062
11:17 1019 30.09 848 25.04 1.4 34.6 71 -3.2 26.2 1.875 0.074
11:18 1019 30.09 848 25.04 1.6 34.9 64 -4.4 24.1 2.044 0.08
11:19 1019 30.09 848 25.04 1.7 35.1 65 -4.1 24.5 1.789 0.07
11:20 1019 30.09 848 25.04 1.9 35.4 67 -3.7 25.4 1.648 0.065
11:21 1019 30.09 848 25.04 2 35.7 74 -2.1 28.1 1.85 0.073
11:22 1019 30.09 848 25.04 2.2 36 70 -2.7 27.1 2.116 0.083
11:23 1019 30.09 848 25.04 2.4 36.3 73 -1.9 28.6 2.359 0.093
11:24 1019 30.09 848 25.04 2.7 36.8 74 -1.5 29.4 2.67 0.105
11:25 1019 30.09 848 25.04 2.9 37.2 63 -3.4 25.9 2.884 0.114
11:26 1019 30.09 848 25.04 2.8 37.1 62 -3.8 25.2 2.46 0.097
11:27 1019 30.09 848 25.04 2.4 36.4 63 -3.8 25.1 2.102 0.083
11:28 1019 30.09 848 25.04 2.1 35.9 58 -5.4 22.3 2.034 0.08
11:29 1019 30.09 848 25.04 1.8 35.2 53 -6.9 19.6 1.151 0.045
11:30 1019 30.09 848 25.04 1.1 33.9 55 -7.1 19.3 0.278 0.011
11:31 1019 30.09 848 25.04 0.6 33.1 57 -7 19.3 -0.017 -0.001
11:32 1019 30.09 848 25.04 0.5 32.9 59 -6.7 20 -0.039 -0.002
11:33 1019 30.09 848 25.04 0.4 32.8 62 -6 21.1 -0.034 -0.001
11:34 1019 30.09 848 25.04 0.6 33 69 -4.5 24 0.203 0.008
11:35 1019 30.09 848 25.04 0.8 33.5 61 -5.8 21.6 0.594 0.023
11:36 1019 30.09 848 25.04 0.8 33.5 65 -5.1 22.9 0.797 0.031
11:37 1019 30.09 848 25.04 0.8 33.5 67 -4.6 23.7 1.063 0.042
11:38 1019 30.09 848 25.04 1 33.8 61 -5.8 21.6 1.284 0.051
11:39 1019 30.09 848 25.04 1.2 34.2 65 -4.6 23.7 1.38 0.054
11:40 1019 30.09 848 25.04 1.4 34.6 63 -4.8 23.3 1.612 0.063
11:41 1019 30.09 848 25.04 1.4 34.6 51 -7.6 18.3 1.301 0.051
11:42 1019 30.09 848 25.04 1 33.9 54 -7.2 19.1 0.587 0.023
11:43 1019 30.09 848 25.04 0.7 33.2 59 -6.4 20.5 0.304 0.012
11:44 1019 30.09 848 25.04 0.6 33 61 -6 21.2 0.219 0.009
11:45 1019 30.09 848 25.04 0.5 32.8 60 -6.5 20.3 0.321 0.013
11:46 1019 30.09 848 25.04 0.4 32.6 56 -7.4 18.6 0.19 0.007
11:47 1019 30.09 848 25.04 0.3 32.6 55 -7.6 18.3 0.134 0.005
11:48 1019 30.09 848 25.04 0.4 32.6 57 -7.2 19 0.049 0.002
11:49 1019 30.09 848 25.04 0.4 32.6 54 -7.8 17.9 -0.019 -0.001
11:50 1019 30.09 848 25.04 0.2 32.3 58 -7 19.3 -0.252 -0.01
11:51 1019 30.09 848 25.04 0.1 32.2 61 -6.6 20.1 -0.105 -0.004
11:52 1019 30.09 848 25.04 0.1 32.2 59 -7.1 19.3 0.06 0.002
11:53 1019 30.09 848 25.04 0.1 32.1 60 -6.8 19.8 -0.031 -0.001
11:54 1019 30.09 848 25.04 -0 32 57 -7.5 18.5 -0.116 -0.005
11:55 1019 30.09 848 25.04 -0.1 31.8 59 -7.2 19.1 -0.139 -0.005
11:56 1019 30.09 848 25.04 -0 31.9 59 -7.1 19.2 -0.076 -0.003
11:57 1019 30.09 848 25.04 -0 31.9 57 -7.6 18.3 -0.275 -0.011
11:58 1019 30.09 848 25.04 -0.3 31.5 60 -7.2 19.1 -0.535 -0.021
11:59 1019 30.09 848 25.04 -0.4 31.2 61 -6.9 19.5 -0.575 -0.023
12:00 1019 30.09 848 25.04 -0.3 31.4 57 -7.9 17.9 -0.439 -0.017
12:01 1019 30.09 848 25.04 -0.4 31.4 57 -7.8 18 -0.58 -0.023
12:02 1019 30.09 848 25.04 -0.4 31.2 58 -7.8 18 -0.62 -0.024
12:03 1019 30.09 848 25.04 -0.5 31.2 58 -7.8 17.9 -0.609 -0.024
12:04 1019 30.09 848 25.04 -0.3 31.5 61 -6.9 19.6 -0.479 -0.019
12:05 1019 30.09 848 25.04 -0.2 31.7 54 -8.3 17 -0.456 -0.018
12:06 1019 30.09 848 25.04 -0.2 31.6 56 -7.9 17.8 -0.433 -0.017
12:07 1019 30.09 848 25.04 -0.2 31.7 60 -7 19.3 -0.298 -0.012
12:08 1019 30.09 848 25.04 0.1 32.1 62 -6.4 20.5 -0.088 -0.003
12:09 1019 30.09 848 25.04 0.2 32.4 60 -6.7 19.9 0.104 0.004
12:10 1019 30.09 849 25.07 0.2 32.4 60 -6.7 20 0.178 0.007
12:11 1019 30.09 849 25.07 0.3 32.5 57 -7.3 18.9 0.195 0.008
12:12 1019 30.09 849 25.07 0.2 32.3 55 -7.9 17.8 -0.043 -0.002
12:13 1019 30.09 849 25.07 0.1 32.2 55 -7.8 18 -0.037 -0.001
12:14 1019 30.09 849 25.07 0.3 32.5 58 -7.2 19.1 -0.037 -0.001
12:15 1019 30.09 849 25.07 0.4 32.7 57 -7.1 19.2 0.082 0.003
12:16 1019 30.09 849 25.07 0.4 32.8 57 -7.1 19.2 0.212 0.008
12:17 1019 30.09 849 25.07 0.4 32.8 57 -7.2 19.1 0.308 0.012
12:18 1019 30.09 849 25.07 0.5 33 57 -7 19.5 0.551 0.022
12:19 1019 30.09 849 25.07 0.6 33.1 58 -6.8 19.8 0.823 0.032
12:20 1019 30.09 849 25.07 0.6 33.1 58 -6.8 19.7 1.06 0.042
12:21 1019 30.09 849 25.07 0.6 33.1 59 -6.5 20.2 1.49 0.059
12:22 1019 30.09 849 25.07 0.8 33.4 56 -7.1 19.3 1.79 0.07
12:23 1019 30.09 849 25.07 0.8 33.5 58 -6.6 20.2 1.964 0.077
12:24 1019 30.09 849 25.07 0.9 33.6 56 -6.9 19.6 2.066 0.081
12:25 1019 30.09 849 25.07 0.8 33.5 58 -6.4 20.4 2.021 0.08
12:26 1019 30.09 849 25.07 0.7 33.3 59 -6.5 20.3 2.167 0.085
12:27 1019 30.09 849 25.07 0.8 33.5 56 -7.1 19.2 2.32 0.091
12:28 1019 30.09 849 25.07 0.9 33.6 56 -7 19.4 2.246 0.088
12:29 1019 30.09 849 25.07 0.9 33.5 57 -6.7 19.9 1.957 0.077
12:30 1019 30.09 849 25.07 0.8 33.4 56 -7.1 19.1 1.708 0.067
12:31 1019 30.09 849 25.07 0.5 32.9 56 -7.2 19.1 1.741 0.069
12:32 1019 30.09 849 25.07 0.2 32.4 56 -7.5 18.6 1.713 0.067
12:33 1019 30.09 849 25.07 0.2 32.3 58 -7.1 19.2 1.73 0.068
12:34 1019 30.09 849 25.07 0.2 32.3 57 -7.4 18.6 1.752 0.069
12:35 1019 30.09 849 25.07 0.3 32.5 58 -7 19.4 1.422 0.056
12:36 1019 30.09 849 25.07 0.3 32.6 57 -7.1 19.2 1.156 0.046
12:37 1019 30.09 849 25.07 0.5 32.8 60 -6.4 20.5 1.014 0.04
12:38 1020 30.12 849 25.07 0.6 33 58 -6.8 19.8 1.143 0.045
12:39 1020 30.12 849 25.07 0.6 33.1 58 -6.8 19.8 1.206 0.047
12:40 1019 30.09 849 25.07 0.4 32.8 56 -7.3 18.9 1.148 0.045
12:41 1019 30.09 849 25.07 0.3 32.5 58 -7.1 19.2 0.916 0.036
12:42 1019 30.09 849 25.07 0.1 32.2 58 -7.2 19 0.656 0.026
12:43 1019 30.09 849 25.07 -0.1 31.9 60 -6.9 19.6 0.485 0.019
12:44 1019 30.09 849 25.07 -0.1 31.9 60 -7 19.4 0.564 0.022
12:45 1020 30.12 849 25.07 -0 31.9 60 -7 19.5 0.756 0.03
12:46 1019 30.09 849 25.07 0 32 58 -7.2 19 1.05 0.041
12:47 1019 30.09 849 25.07 0.1 32.1 61 -6.6 20.1 1.441 0.057
12:48 1020 30.12 849 25.07 0.2 32.3 60 -6.6 20.1 1.678 0.066
12:49 1020 30.12 849 25.07 0.3 32.5 62 -6.1 21 1.819 0.072
12:50 1020 30.12 849 25.07 0.4 32.6 62 -6.1 21.1 1.898 0.075
12:51 1020 30.12 849 25.07 0.3 32.6 58 -7 19.4 1.706 0.067
12:52 1020 30.12 849 25.07 0.3 32.5 60 -6.7 20 1.106 0.044
12:53 1020 30.12 849 25.07 0.3 32.5 59 -6.9 19.5 0.806 0.032
12:54 1020 30.12 849 25.07 0 32.1 61 -6.7 19.9 0.834 0.033
12:55 1020 30.12 849 25.07 -0.1 31.9 60 -7 19.5 0.822 0.032
12:56 1020 30.12 849 25.07 -0.2 31.7 60 -7 19.4 0.692 0.027
12:57 1020 30.12 849 25.07 -0.3 31.4 63 -6.5 20.3 0.573 0.023
12:58 1020 30.12 849 25.07 -0.3 31.4 60 -7.2 19.1 0.256 0.01
12:59 1020 30.12 849 25.07 -0.2 31.7 64 -6.1 21 0.126 0.005
13:00 1020 30.12 849 25.07 -0.1 31.8 64 -6.2 20.8 0.341 0.013
13:01 1020 30.12 849 25.07 -0.2 31.6 64 -6.2 20.9 0.652 0.026
13:02 1020 30.12 849 25.07 -0.4 31.3 61 -7.1 19.2 0.839 0.033
13:03 1020 30.12 849 25.07 -0.6 30.9 61 -7.2 19.1 0.889 0.035
13:04 1020 30.12 849 25.07 -0.8 30.6 63 -7 19.4 0.884 0.035
13:05 1020 30.12 849 25.07 -0.8 30.5 62 -7.2 19.1 0.94 0.037
13:06 1020 30.12 849 25.07 -0.7 30.7 64 -6.6 20.1 1.008 0.04
13:07 1020 30.12 849 25.07 -0.5 31.1 61 -7.1 19.3 1.195 0.047
13:08 1020 30.12 849 25.07 -0.4 31.4 63 -6.7 20 1.116 0.044
13:09 1020 30.12 849 25.07 -0.4 31.3 61 -7 19.4 1.127 0.044
13:10 1020 30.12 849 25.07 -0.3 31.4 63 -6.6 20.1 1.285 0.051
13:11 1020 30.12 849 25.07 -0.2 31.7 62 -6.5 20.3 1.483 0.058
13:12 1020 30.12 849 25.07 -0 32 64 -6 21.1 1.681 0.066
13:13 1020 30.12 849 25.07 0.2 32.4 61 -6.4 20.6 1.908 0.075
13:14 1020 30.12 849 25.07 0.4 32.7 62 -6 21.1 2.038 0.08
13:15 1020 30.12 849 25.07 0.5 33 62 -5.9 21.3 2.275 0.09
13:16 1020 30.12 849 25.07 0.6 33.1 57 -6.9 19.6 2.332 0.092
13:17 1020 30.12 849 25.07 0.4 32.7 59 -6.8 19.7 2.383 0.094
13:18 1020 30.12 849 25.07 0.3 32.6 60 -6.5 20.2 2.519 0.099
13:19 1020 30.12 849 25.07 0.2 32.4 59 -6.9 19.7 2.615 0.103
13:20 1020 30.12 849 25.07 0.2 32.3 62 -6.3 20.7 2.711 0.107
13:21 1020 30.12 849 25.07 0.1 32.2 62 -6.3 20.7 2.751 0.108
13:22 1020 30.12 849 25.07 0.1 32.2 61 -6.6 20.1 2.79 0.11
13:23 1020 30.12 849 25.07 0.3 32.5 58 -7 19.4 2.434 0.096
13:24 1020 30.12 849 25.07 0.4 32.8 61 -6.2 20.8 2.156 0.085
13:25 1020 30.12 849 25.07 0.7 33.3 60 -6.3 20.7 2.202 0.087
13:26 1020 30.12 849 25.07 0.9 33.7 59 -6.2 20.8 2.207 0.087
13:27 1020 30.12 849 25.07 0.9 33.6 56 -6.9 19.6 2.303 0.091
13:28 1020 30.12 849 25.07 0.8 33.4 59 -6.3 20.7 2.53 0.1
13:29 1020 30.12 849 25.07 0.8 33.4 58 -6.6 20 2.785 0.11
13:30 1020 30.12 849 25.07 0.8 33.4 58 -6.6 20.1 2.994 0.118
13:31 1020 30.12 849 25.07 0.7 33.3 60 -6.1 21.1 3.147 0.124
13:32 1020 30.12 849 25.07 1 33.7 56 -6.8 19.8 3.152 0.124
13:33 1020 30.12 849 25.07 1.1 34 53 -7.3 18.8 2.513 0.099
13:34 1020 30.12 849 25.07 1 33.8 55 -6.9 19.5 1.817 0.072
13:35 1020 30.12 849 25.07 0.9 33.6 55 -7.2 19.1 1.387 0.055
13:36 1020 30.12 849 25.07 0.7 33.2 56 -7.2 19 0.973 0.038
13:37 1020 30.12 849 25.07 0.5 32.9 59 -6.5 20.2 0.764 0.03
13:38 1020 30.12 849 25.07 0.4 32.7 59 -6.6 20.1 0.566 0.022
13:39 1020 30.12 849 25.07 0.2 32.4 57 -7.2 19 0.402 0.016
13:40 1020 30.12 849 25.07 0.1 32.1 60 -6.8 19.7 0.238 0.009
13:41 1020 30.12 849 25.07 0.2 32.4 60 -6.7 19.9 0.232 0.009
13:42 1020 30.12 849 25.07 0.2 32.3 61 -6.4 20.5 0.079 0.003
13:43 1020 30.12 849 25.07 0 32.1 62 -6.3 20.7 -0.04 -0.002
13:44 1020 30.12 849 25.07 0.1 32.2 61 -6.5 20.3 -0.062 -0.002
13:45 1020 30.12 849 25.07 0.2 32.4 60 -6.8 19.8 -0.096 -0.004
13:46 1020 30.12 849 25.07 0.2 32.4 60 -6.7 20 -0.147 -0.006
13:47 1020 30.12 849 25.07 0.1 32.2 62 -6.3 20.6 -0.153 -0.006
13:48 1020 30.12 849 25.07 -0 31.9 62 -6.5 20.2 -0.181 -0.007
13:49 1020 30.12 849 25.07 -0.3 31.5 64 -6.3 20.6 -0.345 -0.014
13:50 1020 30.12 849 25.07 -0.4 31.2 63 -6.6 20.1 -0.374 -0.015
13:51 1020 30.12 849 25.07 -0.5 31 64 -6.6 20.1 -0.447 -0.018
13:52 1020 30.12 849 25.07 -0.6 30.9 65 -6.3 20.7 -0.453 -0.018
13:53 1020 30.12 849 25.07 -0.5 31.1 66 -6.1 21 -0.334 -0.013
13:54 1020 30.12 849 25.07 -0.5 31.1 66 -6.2 20.8 -0.396 -0.016
13:55 1020 30.12 849 25.07 -0.5 31 66 -6.1 21.1 -0.424 -0.017
13:56 1020 30.12 849 25.07 -0.5 31.1 68 -5.6 21.9 -0.39 -0.015
13:57 1020 30.12 849 25.07 -0.7 30.8 67 -6.1 21 -0.56 -0.022
13:58 1020 30.12 849 25.07 -0.8 30.6 69 -5.8 21.6 -0.651 -0.026
13:59 1020 30.12 849 25.07 -0.9 30.4 68 -6.2 20.9 -0.724 -0.029
14:00 1020 30.12 849 25.07 -0.9 30.3 69 -5.9 21.3 -0.73 -0.029
14:01 1020 30.12 849 25.07 -0.9 30.5 69 -5.8 21.6 -0.764 -0.03
14:02 1020 30.12 849 25.07 -0.9 30.4 69 -5.8 21.5 -0.809 -0.032
14:03 1020 30.12 849 25.07 -1.1 30.1 72 -5.4 22.3 -0.922 -0.036
14:04 1020 30.12 849 25.07 -1 30.1 74 -5 22.9 -0.945 -0.037
14:05 1020 30.12 849 25.07 -1.1 30 73 -5.3 22.5 -0.928 -0.037
14:06 1020 30.12 849 25.07 -1.2 29.8 76 -5 23 -1.002 -0.039
14:07 1020 30.12 849 25.07 -1.3 29.6 77 -4.9 23.2 -1.087 -0.043
14:08 1020 30.12 849 25.07 -1.5 29.4 78 -4.8 23.3 -1.245 -0.049
14:09 1020 30.12 849 25.07 -1.6 29.2 79 -4.8 23.4 -1.336 -0.053
14:10 1020 30.12 849 25.07 -1.6 29.1 81 -4.6 23.8 -1.358 -0.053
14:11 1020 30.12 849 25.07 -1.7 29 80 -4.8 23.4 -1.392 -0.055
14:12 1020 30.12 849 25.07 -1.8 28.8 80 -4.8 23.3 -1.517 -0.06
14:13 1020 30.12 849 25.07 -1.8 28.7 80 -4.8 23.4 -1.579 -0.062
14:14 1020 30.12 849 25.07 -1.9 28.6 81 -4.8 23.4 -1.59 -0.063
14:15 1020 30.12 849 25.07 -1.9 28.6 81 -4.7 23.6 -1.619 -0.064
14:16 1020 30.12 849 25.07 -1.9 28.6 82 -4.5 23.9 -1.585 -0.062
14:17 1020 30.12 849 25.07 -1.9 28.6 82 -4.5 23.8 -1.534 -0.06
14:18 1020 30.12 849 25.07 -1.9 28.6 83 -4.5 23.9 -1.624 -0.064
14:19 1020 30.12 849 25.07 -1.9 28.6 84 -4.3 24.3 -1.607 -0.063
14:20 1020 30.12 849 25.07 -1.8 28.7 85 -4 24.9 -1.517 -0.06
14:21 1020 30.12 849 25.07 -1.7 28.9 83 -4.3 24.2 -1.483 -0.058
14:22 1020 30.12 849 25.07 -1.7 28.9 84 -4 24.8 -1.437 -0.057
14:23 1020 30.12 849 25.07 -1.7 28.9 80 -4.7 23.5 -1.409 -0.055
14:24 1020 30.12 849 25.07 -1.7 29 78 -5 23 -1.415 -0.056
14:25 1020 30.12 849 25.07 -1.7 28.9 81 -4.5 23.9 -1.437 -0.057
14:26 1020 30.12 849 25.07 -1.7 28.9 80 -4.8 23.4 -1.477 -0.058
14:27 1020 30.12 849 25.07 -1.7 28.9 80 -4.8 23.4 -1.443 -0.057
14:28 1020 30.12 849 25.07 -1.8 28.8 81 -4.7 23.6 -1.483 -0.058
14:29 1020 30.12 849 25.07 -1.7 28.9 81 -4.6 23.7 -1.494 -0.059
14:30 1020 30.12 849 25.07 -1.7 28.9 80 -4.8 23.4 -1.449 -0.057
14:31 1020 30.12 849 25.07 -1.8 28.7 82 -4.5 23.9 -1.556 -0.061
14:32 1020 30.12 849 25.07 -1.8 28.8 82 -4.5 23.9 -1.517 -0.06
14:33 1020 30.12 849 25.07 -1.8 28.8 81 -4.6 23.8 -1.483 -0.058
14:34 1020 30.12 849 25.07 -1.8 28.8 82 -4.4 24.1 -1.483 -0.058
14:35 1020 30.12 849 25.07 -1.7 28.9 81 -4.6 23.7 -1.442 -0.057
14:36 1020 30.12 849 25.07 -1.7 28.9 81 -4.6 23.7 -1.425 -0.056
14:37 1020 30.12 849 25.07 -1.7 28.9 82 -4.4 24.1 -1.419 -0.056
14:38 1020 30.12 849 25.07 -1.7 29 81 -4.6 23.8 -1.412 -0.056
14:39 1020 30.12 849 25.07 -1.7 28.9 80 -4.7 23.6 -1.418 -0.056
14:40 1020 30.12 849 25.07 -1.7 28.9 81 -4.5 23.9 -1.44 -0.057
14:41 1020 30.12 849 25.07 -1.7 28.9 82 -4.4 24.2 -1.417 -0.056
14:42 1020 30.12 849 25.07 -1.6 29.1 81 -4.4 24 -1.395 -0.055
14:43 1020 30.12 849 25.07 -1.6 29.1 82 -4.4 24.1 -1.372 -0.054
14:44 1020 30.12 849 25.07 -1.6 29.1 82 -4.3 24.2 -1.36 -0.054
14:45 1020 30.12 849 25.07 -1.6 29.1 82 -4.3 24.3 -1.371 -0.054
14:46 1020 30.12 849 25.07 -1.6 29.1 83 -4.1 24.5 -1.343 -0.053
14:47 1020 30.12 849 25.07 -1.4 29.4 83 -4 24.8 -1.161 -0.046
14:48 1020 30.12 849 25.07 -1.3 29.7 81 -4.2 24.4 -1.026 -0.04
14:49 1020 30.12 849 25.07 -1.2 29.8 82 -4 24.8 -1.065 -0.042
14:50 1020 30.12 849 25.07 -1.3 29.7 82 -3.9 24.9 -1.178 -0.046
14:51 1020 30.12 849 25.07 -1.4 29.5 84 -3.8 25.2 -1.178 -0.046
14:52 1020 30.12 849 25.07 -1.4 29.4 82 -4.1 24.7 -1.194 -0.047
14:53 1020 30.12 849 25.07 -1.4 29.4 82 -4.1 24.6 -1.182 -0.047
14:54 1020 30.12 849 25.07 -1.3 29.6 81 -4.2 24.5 -1.103 -0.043
14:55 1020 30.12 849 25.07 -1.3 29.7 82 -3.9 24.9 -1.107 -0.044
14:56 1020 30.12 849 25.07 -1.4 29.5 83 -3.9 25 -1.147 -0.045
14:57 1020 30.12 849 25.07 -1.4 29.5 85 -3.7 25.4 -1.175 -0.046
14:58 1020 30.12 850 25.1 -1.4 29.5 82 -4.1 24.6 -1.146 -0.045
14:59 1020 30.12 850 25.1 -1.3 29.6 81 -4.1 24.6 -1.083 -0.043
15:00 1020 30.12 850 25.1 -1.2 29.9 82 -3.9 25 -1.015 -0.04
15:01 1020 30.12 850 25.1 -1.1 30.1 80 -4 24.7 -0.913 -0.036
15:02 1020 30.12 850 25.1 -1.1 30.1 82 -3.8 25.1 -0.947 -0.037
15:03 1020 30.12 850 25.1 -1 30.2 81 -3.8 25.2 -0.816 -0.032
15:04 1020 30.12 850 25.1 -1 30.2 79 -4.1 24.6 -0.867 -0.034
15:05 1020 30.12 850 25.1 -1.1 30 80 -4.1 24.6 -0.918 -0.036
15:06 1020 30.12 850 25.1 -1.1 30 81 -3.9 25 -0.923 -0.036
15:07 1020 30.12 850 25.1 -1 30.1 81 -4 24.9 -0.894 -0.035
15:08 1020 30.12 850 25.1 -1 30.1 82 -3.7 25.3 -0.889 -0.035
15:09 1020 30.12 850 25.1 -0.9 30.4 82 -3.6 25.6 -0.759 -0.03
15:10 1020 30.12 850 25.1 -0.7 30.8 80 -3.7 25.4 -0.583 -0.023
15:11 1020 30.12 850 25.1 -0.6 30.9 79 -3.8 25.1 -0.6 -0.024
15:12 1020 30.12 850 25.1 -0.6 30.9 80 -3.7 25.4 -0.662 -0.026
15:13 1020 30.12 850 25.1 -0.6 31 81 -3.5 25.7 -0.594 -0.023
15:14 1020 30.12 850 25.1 -0.5 31.1 79 -3.7 25.3 -0.452 -0.018
15:15 1020 30.12 850 25.1 -0.5 31.2 79 -3.6 25.5 -0.463 -0.018
15:16 1020 30.12 850 25.1 -0.4 31.3 78 -3.8 25.1 -0.406 -0.016
15:17 1020 30.12 850 25.1 -0.5 31.2 79 -3.7 25.3 -0.446 -0.018
15:18 1020 30.12 850 25.1 -0.6 30.9 80 -3.7 25.3 -0.452 -0.018
15:19 1020 30.12 850 25.1 -0.7 30.8 79 -3.8 25.1 -0.503 -0.02
15:20 1020 30.12 850 25.1 -0.8 30.6 81 -3.7 25.3 -0.474 -0.019
15:21 1020 30.12 850 25.1 -0.8 30.6 80 -3.9 25 -0.491 -0.019
15:22 1020 30.12 850 25.1 -0.7 30.7 81 -3.6 25.5 -0.559 -0.022
15:23 1020 30.12 850 25.1 -0.7 30.7 82 -3.5 25.8 -0.542 -0.021
15:24 1020 30.12 850 25.1 -0.6 30.9 81 -3.5 25.7 -0.4 -0.016
15:25 1020 30.12 850 25.1 -0.7 30.8 80 -3.7 25.3 -0.412 -0.016
15:26 1020 30.12 850 25.1 -0.7 30.7 81 -3.5 25.7 -0.564 -0.022
15:27 1020 30.12 850 25.1 -0.7 30.7 80 -3.7 25.3 -0.559 -0.022
15:28 1020 30.12 850 25.1 -0.7 30.7 80 -3.8 25.2 -0.462 -0.018
15:29 1020 30.12 850 25.1 -0.6 30.9 81 -3.5 25.7 -0.423 -0.017
15:30 1020 30.12 850 25.1 -0.6 30.9 78 -4 24.8 -0.508 -0.02
15:31 1020 30.12 850 25.1 -0.7 30.7 78 -4.1 24.6 -0.621 -0.024
15:32 1020 30.12 850 25.1 -0.8 30.6 79 -4 24.8 -0.638 -0.025
15:33 1020 30.12 850 25.1 -0.8 30.6 79 -4 24.8 -0.677 -0.027
15:34 1020 30.12 850 25.1 -0.8 30.6 79 -3.9 24.9 -0.802 -0.032
15:35 1020 30.12 850 25.1 -0.8 30.6 80 -3.9 25 -0.734 -0.029
15:36 1020 30.12 850 25.1 -0.9 30.5 80 -3.9 25 -0.649 -0.026
15:37 1020 30.12 850 25.1 -0.9 30.4 80 -3.9 25.1 -0.638 -0.025
15:38 1020 30.12 850 25.1 -0.8 30.5 80 -3.9 25 -0.689 -0.027
15:39 1020 30.12 850 25.1 -0.8 30.6 79 -3.9 25 -0.785 -0.031
15:40 1020 30.12 850 25.1 -0.7 30.7 81 -3.6 25.5 -0.768 -0.03
15:41 1020 30.12 850 25.1 -0.8 30.6 80 -3.8 25.1 -0.779 -0.031
15:42 1020 30.12 850 25.1 -0.8 30.5 82 -3.6 25.5 -0.807 -0.032
15:43 1020 30.12 850 25.1 -0.9 30.4 82 -3.6 25.5 -0.802 -0.032
15:44 1020 30.12 850 25.1 -1 30.3 82 -3.6 25.4 -0.807 -0.032
15:45 1020 30.12 850 25.1 -1 30.2 82 -3.7 25.3 -0.796 -0.031
15:46 1020 30.12 850 25.1 -1.1 30.1 81 -3.9 25 -0.768 -0.03
15:47 1020 30.12 850 25.1 -1.1 30 82 -3.8 25.2 -0.723 -0.028
15:48 1020 30.12 850 25.1 -1.1 30.1 83 -3.6 25.5 -0.604 -0.024
15:49 1020 30.12 850 25.1 -0.9 30.3 82 -3.7 25.4 -0.536 -0.021
15:50 1020 30.12 850 25.1 -0.9 30.3 82 -3.7 25.3 -0.536 -0.021
15:51 1020 30.12 850 25.1 -0.9 30.3 82 -3.6 25.6 -0.519 -0.02
15:52 1020 30.12 850 25.1 -0.9 30.4 83 -3.4 25.9 -0.326 -0.013
15:53 1020 30.12 850 25.1 -0.8 30.5 82 -3.5 25.7 -0.117 -0.005
15:54 1020 30.12 850 25.1 -0.6 30.9 82 -3.3 26 -0.015 -0.001
15:55 1020 30.12 850 25.1 -0.6 31 82 -3.2 26.2 0.104 0.004
15:56 1020 30.12 850 25.1 -0.5 31.1 83 -3.1 26.4 0.415 0.016
15:57 1020 30.12 850 25.1 -0.5 31.2 82 -3.2 26.2 0.682 0.027
15:58 1020 30.12 850 25.1 -0.4 31.3 82 -3.1 26.4 0.976 0.038
15:59 1020 30.12 850 25.1 -0.3 31.4 82 -3 26.7 1.225 0.048
16:00 1020 30.12 850 25.1 -0.2 31.7 81 -3 26.6 1.423 0.056
16:01 1020 30.12 850 25.1 0 32 82 -2.7 27.2 1.752 0.069
16:02 1020 30.12 850 25.1 0.3 32.6 82 -2.4 27.8 2.103 0.083
16:03 1020 30.12 850 25.1 0.7 33.3 80 -2.3 27.9 2.487 0.098
16:04 1020 30.12 849 25.07 1.1 34.1 76 -2.5 27.4 2.906 0.114
16:05 1020 30.12 849 25.07 1.4 34.5 74 -2.8 26.9 3.156 0.124
16:06 1020 30.12 850 25.1 1.6 34.9 73 -2.8 27 3.325 0.131
16:07 1020 30.12 849 25.07 1.7 35 70 -3.1 26.3 3.354 0.132
16:08 1020 30.12 849 25.07 1.4 34.5 72 -3.2 26.3 3.031 0.119
16:09 1020 30.12 849 25.07 1.2 34.1 73 -3.1 26.4 2.703 0.106
16:10 1020 30.12 849 25.07 1.2 34.2 73 -3.1 26.4 2.521 0.099
16:11 1020 30.12 849 25.07 1.3 34.3 74 -2.9 26.7 2.425 0.095
16:12 1020 30.12 849 25.07 1.4 34.5 73 -2.8 26.9 2.482 0.098
16:13 1020 30.12 849 25.07 1.6 34.8 74 -2.6 27.3 2.589 0.102
16:14 1020 30.12 849 25.07 1.8 35.3 74 -2.2 28 2.737 0.108
16:15 1020 30.12 849 25.07 2.3 36.2 72 -2.2 28.1 3.02 0.119
16:16 1020 30.12 849 25.07 2.5 36.4 70 -2.5 27.5 3.303 0.13
16:17 1020 30.12 849 25.07 2.1 35.8 71 -2.6 27.2 3.184 0.125
16:18 1020 30.12 849 25.07 1.7 35 76 -2.1 28.3 2.844 0.112
16:19 1020 30.12 849 25.07 1.3 34.4 78 -2.1 28.1 2.414 0.095
16:20 1020 30.12 849 25.07 1 33.8 80 -2.1 28.3 1.954 0.077
16:21 1020 30.12 849 25.07 0.8 33.4 85 -1.5 29.3 1.694 0.067
16:22 1020 30.12 849 25.07 0.6 33.1 86 -1.5 29.3 1.546 0.061
16:23 1020 30.12 849 25.07 0.4 32.7 86 -1.6 29.1 1.291 0.051
16:24 1020 30.12 850 25.1 0.2 32.3 88 -1.6 29.2 1.024 0.04
16:25 1020 30.12 849 25.07 0 32.1 89 -1.6 29.1 0.962 0.038
16:26 1020 30.12 849 25.07 -0.1 31.8 89 -1.8 28.8 0.724 0.029
16:27 1020 30.12 849 25.07 -0.3 31.5 90 -1.8 28.8 0.593 0.023
16:28 1020 30.12 849 25.07 -0.3 31.4 90 -1.8 28.7 0.418 0.016
16:29 1020 30.12 849 25.07 -0.4 31.2 89 -2 28.4 0.298 0.012
16:30 1020 30.12 849 25.07 -0.6 31 90 -2 28.4 0.145 0.006
16:31 1020 30.12 849 25.07 -0.6 30.8 91 -2 28.4 0.1 0.004
16:32 1020 30.12 849 25.07 -0.7 30.7 91 -2 28.4 0.026 0.001
16:33 1020 30.12 849 25.07 -0.8 30.7 91 -2 28.3 0.037 0.001
16:34 1020 30.12 849 25.07 -0.7 30.7 90 -2.1 28.2 0.043 0.002
16:35 1020 30.12 849 25.07 -0.8 30.6 90 -2.2 28.1 0.122 0.005
16:36 1020 30.12 849 25.07 -0.8 30.5 90 -2.3 27.9 0.06 0.002
16:37 1020 30.12 849 25.07 -0.8 30.5 89 -2.4 27.7 -0.025 -0.001
16:38 1020 30.12 849 25.07 -0.8 30.5 89 -2.5 27.5 -0.082 -0.003
16:39 1020 30.12 849 25.07 -0.8 30.5 89 -2.5 27.5 -0.173 -0.007
16:40 1020 30.12 849 25.07 -0.8 30.6 88 -2.5 27.4 -0.071 -0.003
16:41 1020 30.12 849 25.07 -0.8 30.5 87 -2.8 27 -0.135 -0.005
16:42 1020 30.12 849 25.07 -0.8 30.5 87 -2.7 27.2 -0.135 -0.005
16:43 1020 30.12 849 25.07 -0.8 30.6 87 -2.7 27.1 -0.016 -0.001
16:44 1020 30.12 849 25.07 -0.7 30.7 87 -2.6 27.4 0.203 0.008
16:45 1020 30.12 849 25.07 -0.6 30.9 86 -2.6 27.3 0.311 0.012
16:46 1020 30.12 849 25.07 -0.6 30.9 86 -2.6 27.3 0.356 0.014
16:47 1020 30.12 849 25.07 -0.5 31.2 86 -2.5 27.5 0.553 0.022
16:48 1020 30.12 849 25.07 -0.4 31.3 85 -2.6 27.3 0.78 0.031
16:49 1020 30.12 849 25.07 -0.4 31.2 85 -2.6 27.3 0.706 0.028
16:50 1020 30.12 849 25.07 -0.4 31.3 84 -2.7 27.1 0.694 0.027
16:51 1020 30.12 849 25.07 -0.4 31.2 84 -2.9 26.8 0.564 0.022
16:52 1020 30.12 849 25.07 -0.5 31.2 83 -3 26.6 0.445 0.018
16:53 1020 30.12 849 25.07 -0.6 31 81 -3.4 26 0.24 0.009
16:54 1020 30.12 849 25.07 -0.6 30.8 82 -3.3 26 0.105 0.004
16:55 1020 30.12 849 25.07 -0.6 30.9 82 -3.4 25.9 0.048 0.002
16:56 1020 30.12 849 25.07 -0.6 30.9 81 -3.5 25.7 -0.026 -0.001
16:57 1020 30.12 849 25.07 -0.7 30.8 81 -3.4 25.8 -0.037 -0.001
16:58 1020 30.12 849 25.07 -0.6 31 81 -3.5 25.8 0.036 0.001
16:59 1020 30.12 849 25.07 -0.5 31.1 82 -3.3 26.1 0.098 0.004
17:00 1020 30.12 849 25.07 -0.4 31.2 81 -3.3 26 0.155 0.006
17:01 1020 30.12 849 25.07 -0.4 31.3 80 -3.5 25.7 0.166 0.007
17:02 1020 30.12 849 25.07 -0.4 31.3 80 -3.5 25.8 0.165 0.006
17:03 1020 30.12 849 25.07 -0.3 31.4 80 -3.4 25.9 0.211 0.008
17:04 1020 30.12 849 25.07 -0.3 31.5 80 -3.4 25.9 0.341 0.013
17:05 1020 30.12 849 25.07 -0.1 31.8 80 -3.2 26.2 0.443 0.017
17:06 1020 30.12 849 25.07 -0 32 80 -3 26.6 0.703 0.028
17:07 1020 30.12 849 25.07 0.1 32.1 80 -2.9 26.8 0.901 0.035
17:08 1020 30.12 849 25.07 0.2 32.3 79 -3 26.6 1.076 0.042
17:09 1020 30.12 849 25.07 0.2 32.4 80 -2.8 26.9 1.201 0.047
17:10 1020 30.12 849 25.07 0.3 32.5 80 -2.8 27 1.297 0.051
17:11 1020 30.12 849 25.07 0.3 32.6 80 -2.7 27.1 1.291 0.051
17:12 1020 30.12 849 25.07 0.4 32.6 79 -2.9 26.8 1.308 0.051
17:13 1020 30.12 849 25.07 0.3 32.5 80 -2.8 26.9 1.263 0.05
17:14 1020 30.12 849 25.07 0.3 32.5 79 -3 26.6 1.291 0.051
17:15 1020 30.12 849 25.07 0.2 32.3 79 -3 26.6 1.195 0.047
17:16 1020 30.12 849 25.07 0.2 32.4 78 -3.1 26.3 1.178 0.046
17:17 1020 30.12 849 25.07 0.1 32.2 76 -3.6 25.6 1.064 0.042
17:18 1020 30.12 849 25.07 -0 31.9 76 -3.7 25.3 0.855 0.034
17:19 1020 30.12 849 25.07 -0.1 31.8 79 -3.3 26 0.696 0.027
17:20 1020 30.12 849 25.07 -0.2 31.7 77 -3.7 25.3 0.657 0.026
17:21 1020 30.12 849 25.07 -0.2 31.6 77 -3.7 25.3 0.504 0.02
17:22 1020 30.12 849 25.07 -0.3 31.5 76 -4 24.8 0.447 0.018
17:23 1020 30.12 849 25.07 -0.3 31.5 76 -4.1 24.7 0.459 0.018
17:24 1020 30.12 849 25.07 -0.3 31.5 75 -4.1 24.6 0.442 0.017
17:25 1020 30.12 849 25.07 -0.2 31.6 76 -4 24.8 0.47 0.019
17:26 1020 30.12 849 25.07 -0.1 31.9 75 -4 24.9 0.611 0.024
17:27 1020 30.12 849 25.07 0.1 32.1 75 -3.9 25 0.804 0.032
17:28 1020 30.12 849 25.07 0.2 32.4 74 -4 24.8 1.036 0.041
17:29 1020 30.12 849 25.07 0.3 32.5 72 -4.2 24.4 1.217 0.048
17:30 1020 30.12 849 25.07 0.3 32.5 71 -4.5 24 1.24 0.049
17:31 1020 30.12 849 25.07 0.2 32.3 70 -4.6 23.7 1.296 0.051
17:32 1020 30.12 849 25.07 0.1 32.2 71 -4.5 23.8 1.358 0.053
17:33 1020 30.12 849 25.07 0.2 32.3 72 -4.4 24.1 1.511 0.059
17:34 1020 30.12 849 25.07 0.2 32.4 70 -4.6 23.8 1.562 0.061
17:35 1020 30.12 849 25.07 0.2 32.3 70 -4.7 23.5 1.489 0.059
17:36 1020 30.12 849 25.07 0.2 32.3 71 -4.4 24.1 1.449 0.057
17:37 1020 30.12 849 25.07 0.2 32.3 71 -4.6 23.8 1.392 0.055
17:38 1020 30.12 849 25.07 0.2 32.4 70 -4.6 23.8 1.5 0.059
17:39 1020 30.12 849 25.07 0.3 32.5 70 -4.5 24 1.534 0.06
17:40 1020 30.12 849 25.07 0.5 32.8 70 -4.3 24.2 1.643 0.065
17:41 1020 30.12 849 25.07 0.7 33.2 70 -4.2 24.5 1.892 0.074
17:42 1020 30.12 849 25.07 1 33.9 68 -4.3 24.3 2.107 0.083
17:43 1020 30.12 849 25.07 1.3 34.3 67 -4.2 24.4 2.215 0.087
17:44 1020 30.12 849 25.07 1.5 34.6 66 -4.2 24.4 2.176 0.086
17:45 1020 30.12 849 25.07 1.5 34.7 65 -4.4 24.1 2.006 0.079
17:46 1020 30.12 849 25.07 1.4 34.6 65 -4.4 24.1 1.751 0.069
17:47 1020 30.12 849 25.07 1.4 34.5 66 -4.4 24.1 1.609 0.063
17:48 1020 30.12 849 25.07 1.3 34.3 66 -4.4 24.1 1.553 0.061
17:49 1020 30.12 849 25.07 1.3 34.3 65 -4.5 23.9 1.531 0.06
17:50 1020 30.12 849 25.07 1.2 34.1 66 -4.5 23.8 1.407 0.055
17:51 1020 30.12 849 25.07 1.1 34 67 -4.4 24.1 1.334 0.053
17:52 1020 30.12 849 25.07 1.2 34.1 66 -4.4 24 1.39 0.055
17:53 1020 30.12 849 25.07 1.2 34.2 65 -4.5 23.9 1.43 0.056
17:54 1020 30.12 849 25.07 1.3 34.3 66 -4.5 24 1.431 0.056
17:55 1020 30.12 849 25.07 1.3 34.4 65 -4.4 24 1.442 0.057
17:56 1020 30.12 849 25.07 1.3 34.3 65 -4.6 23.8 1.363 0.054
17:57 1020 30.12 849 25.07 1.2 34.2 66 -4.4 24 1.29 0.051
17:58 1020 30.12 849 25.07 1.2 34.1 65 -4.7 23.6 1.227 0.048
17:59 1020 30.12 849 25.07 1.1 34.1 66 -4.6 23.8 1.199 0.047
18:00 1020 30.12 849 25.07 1.1 34 65 -4.6 23.7 1.21 0.048
18:01 1020 30.12 849 25.07 1.1 33.9 66 -4.5 23.8 1.158 0.046
18:02 1020 30.12 849 25.07 1 33.8 66 -4.7 23.6 1.085 0.043
18:03 1020 30.12 849 25.07 0.9 33.7 66 -4.6 23.7 1.005 0.04
18:04 1020 30.12 849 25.07 0.8 33.5 67 -4.7 23.5 0.926 0.036
18:05 1020 30.12 849 25.07 0.8 33.4 66 -4.8 23.4 0.892 0.035
18:06 1020 30.12 849 25.07 0.7 33.3 67 -4.8 23.4 0.853 0.034
18:07 1020 30.12 849 25.07 0.7 33.3 67 -4.7 23.6 0.83 0.033
18:08 1020 30.12 849 25.07 0.8 33.4 68 -4.6 23.8 0.875 0.034
18:09 1020 30.12 849 25.07 0.7 33.3 68 -4.5 23.9 0.927 0.036
18:10 1020 30.12 849 25.07 0.7 33.3 69 -4.4 24.1 0.899 0.035
18:11 1020 30.12 849 25.07 0.7 33.3 67 -4.6 23.7 0.848 0.033
18:12 1020 30.12 849 25.07 0.7 33.2 68 -4.7 23.6 0.758 0.03
18:13 1020 30.12 849 25.07 0.6 33.1 67 -4.8 23.3 0.701 0.028
18:14 1020 30.12 849 25.07 0.5 33 68 -4.8 23.4 0.644 0.025
18:15 1020 30.12 849 25.07 0.5 32.9 67 -4.9 23.3 0.621 0.024
18:16 1020 30.12 849 25.07 0.5 32.8 68 -4.8 23.3 0.643 0.025
18:17 1020 30.12 849 25.07 0.5 32.8 68 -4.8 23.4 0.621 0.024
18:18 1020 30.12 849 25.07 0.5 32.8 68 -4.7 23.5 0.621 0.024
18:19 1020 30.12 849 25.07 0.5 32.9 69 -4.5 23.9 0.593 0.023
18:20 1020 30.12 849 25.07 0.5 32.9 68 -4.7 23.5 0.548 0.022
18:21 1020 30.12 849 25.07 0.4 32.8 69 -4.6 23.8 0.537 0.021
18:22 1020 30.12 849 25.07 0.4 32.7 69 -4.6 23.7 0.503 0.02
18:23 1020 30.12 849 25.07 0.4 32.6 68 -4.8 23.4 0.447 0.018
18:24 1020 30.12 849 25.07 0.3 32.5 68 -4.9 23.2 0.458 0.018
18:25 1020 30.12 849 25.07 0.3 32.5 68 -4.8 23.3 0.43 0.017
18:26 1020 30.12 849 25.07 0.3 32.5 68 -4.9 23.2 0.503 0.02
18:27 1020 30.12 849 25.07 0.3 32.6 68 -4.8 23.4 0.526 0.021
18:28 1020 30.12 849 25.07 0.3 32.6 68 -5 23.1 0.543 0.021
18:29 1020 30.12 849 25.07 0.3 32.6 68 -4.9 23.2 0.538 0.021
18:30 1020 30.12 849 25.07 0.3 32.6 68 -4.9 23.2 0.544 0.021
18:31 1020 30.12 849 25.07 0.3 32.5 68 -5 23.1 0.532 0.021
18:32 1020 30.12 849 25.07 0.3 32.5 68 -5 23 0.549 0.022
18:33 1020 30.12 849 25.07 0.3 32.6 68 -4.9 23.1 0.595 0.023
18:34 1020 30.12 849 25.07 0.4 32.6 67 -5.1 22.8 0.612 0.024
18:35 1020 30.12 849 25.07 0.4 32.7 67 -5 22.9 0.663 0.026
18:36 1020 30.12 849 25.07 0.4 32.8 67 -5 22.9 0.77 0.03
18:37 1020 30.12 849 25.07 0.5 32.9 66 -5 22.9 0.782 0.031
18:38 1020 30.12 849 25.07 0.6 33 68 -4.7 23.5 0.827 0.033
18:39 1020 30.12 849 25.07 0.6 33.1 66 -4.9 23.2 0.912 0.036
18:40 1020 30.12 849 25.07 0.7 33.2 66 -5 23 0.974 0.038
18:41 1020 30.12 849 25.07 0.7 33.3 66 -5 23 1.015 0.04
18:42 1020 30.12 849 25.07 0.8 33.5 65 -5 22.9 1.083 0.043
18:43 1020 30.12 849 25.07 0.9 33.6 65 -5 22.9 1.095 0.043
18:44 1020 30.12 849 25.07 0.9 33.5 65 -5 23 1.1 0.043
18:45 1020 30.12 849 25.07 0.9 33.6 65 -4.9 23.1 1.179 0.046
18:46 1020 30.12 849 25.07 0.9 33.7 65 -4.9 23.2 1.253 0.049
18:47 1020 30.12 849 25.07 1 33.9 65 -4.8 23.4 1.429 0.056
18:48 1020 30.12 849 25.07 1.2 34.1 64 -4.8 23.3 1.526 0.06
18:49 1020 30.12 849 25.07 1.3 34.3 64 -4.8 23.3 1.645 0.065
18:50 1020 30.12 849 25.07 1.3 34.4 64 -4.8 23.3 1.674 0.066
18:51 1020 30.12 849 25.07 1.4 34.5 63 -4.9 23.2 1.663 0.065
18:52 1020 30.12 849 25.07 1.3 34.4 63 -4.9 23.3 1.617 0.064
18:53 1020 30.12 849 25.07 1.3 34.4 65 -4.6 23.8 1.533 0.06
18:54 1020 30.12 849 25.07 1.3 34.3 65 -4.6 23.7 1.562 0.061
18:55 1020 30.12 849 25.07 1.3 34.3 67 -4.3 24.3 1.482 0.058
18:56 1020 30.12 849 25.07 1.3 34.3 67 -4.2 24.5 1.551 0.061
18:57 1020 30.12 849 25.07 1.4 34.4 65 -4.6 23.8 1.579 0.062
18:58 1020 30.12 849 25.07 1.4 34.6 64 -4.7 23.5 1.619 0.064
18:59 1020 30.12 849 25.07 1.5 34.7 64 -4.5 23.9 1.682 0.066
19:00 1020 30.12 849 25.07 1.6 34.9 66 -4.1 24.6 1.744 0.069
19:01 1020 30.12 849 25.07 1.7 35 67 -3.9 25 1.823 0.072
19:02 1020 30.12 849 25.07 1.7 35.1 66 -3.9 24.9 1.931 0.076
19:03 1020 30.12 849 25.07 1.7 35.1 66 -3.9 25 2.078 0.082
19:04 1020 30.12 849 25.07 1.8 35.2 64 -4.3 24.3 2.118 0.083
19:05 1020 30.12 849 25.07 1.7 35.1 63 -4.7 23.6 2.141 0.084
19:06 1020 30.12 849 25.07 1.6 34.9 62 -4.9 23.2 2.101 0.083
19:07 1020 30.12 849 25.07 1.4 34.5 63 -4.9 23.1 2.022 0.08
19:08 1020 30.12 849 25.07 1.1 34 64 -4.9 23.2 1.796 0.071
19:09 1020 30.12 849 25.07 0.9 33.6 64 -5.1 22.8 1.479 0.058
19:10 1020 30.12 849 25.07 0.6 33.1 65 -5.2 22.6 1.179 0.046
19:11 1020 30.12 849 25.07 0.4 32.7 66 -5.3 22.5 0.93 0.037
19:12 1020 30.12 849 25.07 0.2 32.3 67 -5.1 22.7 0.749 0.029
19:13 1020 30.12 849 25.07 0 32.1 67 -5.3 22.5 0.658 0.026
19:14 1020 30.12 849 25.07 0 32 69 -5 23 0.556 0.022
19:15 1020 30.12 849 25.07 0 32 69 -5 22.9 0.505 0.02
19:16 1020 30.12 849 25.07 0 32 68 -5.1 22.8 0.511 0.02
19:17 1020 30.12 849 25.07 -0.1 31.8 69 -5.1 22.8 0.409 0.016
19:18 1020 30.12 849 25.07 -0.2 31.6 69 -5.3 22.5 0.29 0.011
19:19 1020 30.12 849 25.07 -0.3 31.5 69 -5.2 22.6 0.155 0.006
19:20 1020 30.12 849 25.07 -0.3 31.4 70 -5.2 22.6 0.138 0.005
19:21 1020 30.12 849 25.07 -0.4 31.3 70 -5.3 22.5 0.064 0.003
19:22 1020 30.12 849 25.07 -0.4 31.3 70 -5.2 22.6 0.025 0.001
19:23 1020 30.12 849 25.07 -0.5 31.1 71 -5.2 22.7 0.019 0.001
19:24 1020 30.12 849 25.07 -0.5 31.1 71 -5.1 22.7 -0.026 -0.001
19:25 1020 30.12 849 25.07 -0.5 31.1 71 -5.1 22.9 0.008 0
19:26 1020 30.12 849 25.07 -0.5 31.1 72 -4.9 23.2 -0.021 -0.001
19:27 1020 30.12 849 25.07 -0.5 31 72 -5 22.9 -0.015 -0.001
19:28 1020 30.12 849 25.07 -0.6 31 72 -4.9 23.1 -0.089 -0.004
19:29 1020 30.12 849 25.07 -0.6 30.9 72 -5 23.1 -0.089 -0.004
19:30 1020 30.12 849 25.07 -0.6 30.9 73 -4.9 23.3 -0.043 -0.002
19:31 1020 30.12 849 25.07 -0.6 30.9 72 -5 23.1 -0.043 -0.002
19:32 1020 30.12 849 25.07 -0.7 30.8 73 -5 23 -0.055 -0.002
19:33 1020 30.12 849 25.07 -0.7 30.8 73 -5 23 -0.055 -0.002
19:34 1020 30.12 849 25.07 -0.7 30.7 73 -5 23 -0.071 -0.003
19:35 1020 30.12 849 25.07 -0.7 30.7 73 -4.9 23.2 -0.139 -0.005
19:36 1020 30.12 849 25.07 -0.7 30.7 74 -4.7 23.5 -0.179 -0.007
19:37 1020 30.12 849 25.07 -0.8 30.6 75 -4.6 23.7 -0.23 -0.009
19:38 1020 30.12 849 25.07 -0.8 30.6 76 -4.5 23.9 -0.27 -0.011
19:39 1020 30.12 849 25.07 -0.8 30.5 77 -4.4 24.1 -0.275 -0.011
19:40 1020 30.12 849 25.07 -0.8 30.5 77 -4.4 24.1 -0.292 -0.011
19:41 1020 30.12 849 25.07 -0.8 30.5 77 -4.4 24.1 -0.326 -0.013
19:42 1020 30.12 849 25.07 -0.8 30.5 76 -4.5 23.9 -0.383 -0.015
19:43 1020 30.12 849 25.07 -0.9 30.4 77 -4.4 24 -0.422 -0.017
19:44 1020 30.12 849 25.07 -0.9 30.4 78 -4.2 24.5 -0.473 -0.019
19:45 1020 30.12 849 25.07 -0.9 30.4 78 -4.3 24.3 -0.496 -0.02
19:46 1020 30.12 849 25.07 -0.9 30.3 78 -4.3 24.3 -0.49 -0.019
19:47 1020 30.12 849 25.07 -1 30.3 79 -4.2 24.5 -0.547 -0.022
19:48 1020 30.12 849 25.07 -1 30.2 79 -4.2 24.5 -0.536 -0.021
19:49 1020 30.12 849 25.07 -1 30.1 80 -4.1 24.6 -0.632 -0.025
19:50 1020 30.12 849 25.07 -1 30.1 80 -4 24.8 -0.632 -0.025
19:51 1020 30.12 849 25.07 -1.1 30 80 -4.1 24.7 -0.683 -0.027
19:52 1020 30.12 849 25.07 -1.1 30 81 -3.9 25 -0.671 -0.026
19:53 1020 30.12 849 25.07 -1.1 30 83 -3.7 25.3 -0.717 -0.028
19:54 1020 30.12 849 25.07 -1.1 30 83 -3.6 25.5 -0.717 -0.028
19:55 1020 30.12 849 25.07 -1.1 29.9 84 -3.6 25.5 -0.745 -0.029
19:56 1020 30.12 849 25.07 -1.2 29.9 85 -3.4 25.8 -0.773 -0.03
19:57 1020 30.12 849 25.07 -1.2 29.8 85 -3.4 25.8 -0.779 -0.031
19:58 1020 30.12 849 25.07 -1.2 29.8 85 -3.4 25.9 -0.802 -0.032
19:59 1020 30.12 849 25.07 -1.3 29.7 87 -3.2 26.2 -0.819 -0.032
20:00 1020 30.12 849 25.07 -1.3 29.7 87 -3.2 26.3 -0.87 -0.034
20:01 1020 30.12 849 25.07 -1.3 29.6 87 -3.2 26.2 -0.887 -0.035
20:02 1020 30.12 849 25.07 -1.4 29.6 88 -3.1 26.3 -0.921 -0.036
20:03 1020 30.12 850 25.1 -1.4 29.5 88 -3.2 26.3 -0.914 -0.036
20:04 1020 30.12 850 25.1 -1.4 29.5 88 -3.1 26.4 -0.936 -0.037
20:05 1020 30.12 850 25.1 -1.4 29.5 89 -3 26.5 -0.942 -0.037
20:06 1020 30.12 850 25.1 -1.4 29.4 89 -3 26.6 -1.015 -0.04
20:07 1020 30.12 850 25.1 -1.5 29.3 89 -3 26.6 -1.048 -0.041
20:08 1020 30.12 850 25.1 -1.5 29.3 90 -3 26.7 -1.065 -0.042
20:09 1020 30.12 850 25.1 -1.5 29.2 91 -2.9 26.8 -1.104 -0.043
20:10 1020 30.12 849 25.07 -1.6 29 91 -2.9 26.7 -1.155 -0.045
20:11 1020 30.12 850 25.1 -1.6 29.1 91 -2.9 26.8 -1.178 -0.046
20:12 1020 30.12 850 25.1 -1.7 29 92 -2.8 26.9 -1.189 -0.047
20:13 1020 30.12 850 25.1 -1.7 28.9 92 -2.8 26.9 -1.262 -0.05
20:14 1020 30.12 850 25.1 -1.7 28.9 92 -2.8 27 -1.268 -0.05
20:15 1020 30.12 850 25.1 -1.8 28.8 93 -2.8 26.9 -1.294 -0.051
20:16 1020 30.12 850 25.1 -1.8 28.8 93 -2.8 26.9 -1.294 -0.051
20:17 1020 30.12 850 25.1 -1.8 28.7 93 -2.8 26.9 -1.3 -0.051
20:18 1020 30.12 850 25.1 -1.8 28.7 93 -2.8 27 -1.31 -0.052
20:19 1020 30.12 850 25.1 -1.8 28.7 94 -2.7 27.1 -1.378 -0.054
20:20 1020 30.12 850 25.1 -1.9 28.6 94 -2.8 27 -1.355 -0.053
20:21 1020 30.12 850 25.1 -1.9 28.6 94 -2.7 27.1 -1.359 -0.054
20:22 1020 30.12 850 25.1 -1.9 28.6 94 -2.7 27.1 -1.376 -0.054
20:23 1020 30.12 850 25.1 -1.9 28.5 94 -2.7 27.1 -1.388 -0.055
20:24 1020 30.12 850 25.1 -1.9 28.5 94 -2.7 27.1 -1.421 -0.056
20:25 1020 30.12 850 25.1 -2 28.4 94 -2.8 27 -1.415 -0.056
20:26 1020 30.12 850 25.1 -1.9 28.6 95 -2.7 27.2 -1.449 -0.057
20:27 1020 30.12 850 25.1 -2 28.4 95 -2.7 27.1 -1.471 -0.058
20:28 1020 30.12 850 25.1 -2 28.5 95 -2.7 27.2 -1.465 -0.058
20:29 1020 30.12 850 25.1 -2 28.5 95 -2.7 27.2 -1.505 -0.059
20:30 1020 30.12 850 25.1 -2 28.4 95 -2.7 27.2 -1.47 -0.058
20:31 1020 30.12 850 25.1 -1.9 28.5 95 -2.6 27.3 -1.482 -0.058
20:32 1020 30.12 850 25.1 -2 28.4 95 -2.6 27.2 -1.51 -0.059
20:33 1020 30.12 850 25.1 -2 28.4 96 -2.6 27.3 -1.509 -0.059
20:34 1020 30.12 850 25.1 -2 28.4 96 -2.6 27.3 -1.515 -0.06
20:35 1020 30.12 850 25.1 -2.1 28.3 96 -2.7 27.2 -1.56 -0.061
20:36 1020 30.12 850 25.1 -2 28.4 96 -2.6 27.3 -1.554 -0.061
20:37 1020 30.12 850 25.1 -2.1 28.3 96 -2.6 27.3 -1.554 -0.061
20:38 1020 30.12 850 25.1 -2 28.3 96 -2.6 27.3 -1.605 -0.063
20:39 1020 30.12 850 25.1 -2 28.4 96 -2.6 27.4 -1.554 -0.061
20:40 1020 30.12 850 25.1 -2.1 28.3 96 -2.6 27.3 -1.588 -0.063
20:41 1020 30.12 850 25.1 -2 28.3 96 -2.6 27.4 -1.554 -0.061
20:42 1020 30.12 850 25.1 -2.1 28.3 96 -2.6 27.4 -1.627 -0.064
20:43 1020 30.12 850 25.1 -2.1 28.3 96 -2.6 27.3 -1.616 -0.064
20:44 1020 30.12 850 25.1 -2.1 28.3 96 -2.6 27.4 -1.622 -0.064
20:45 1020 30.12 850 25.1 -2.1 28.2 97 -2.6 27.4 -1.661 -0.065
20:46 1020 30.12 850 25.1 -2.1 28.2 97 -2.6 27.3 -1.633 -0.064
20:47 1020 30.12 850 25.1 -2.1 28.2 97 -2.6 27.4 -1.639 -0.065
20:48 1020 30.12 850 25.1 -2.1 28.2 97 -2.6 27.3 -1.65 -0.065
20:49 1020 30.12 850 25.1 -2.1 28.2 97 -2.5 27.4 -1.678 -0.066
20:50 1020 30.12 850 25.1 -2.2 28.1 97 -2.6 27.3 -1.684 -0.066
20:51 1020 30.12 850 25.1 -2.1 28.1 97 -2.6 27.4 -1.684 -0.066
20:52 1020 30.12 850 25.1 -2.1 28.2 97 -2.5 27.4 -1.718 -0.068
20:53 1020 30.12 850 25.1 -2.2 28 97 -2.6 27.3 -1.718 -0.068
20:54 1020 30.12 850 25.1 -2.2 28.1 97 -2.6 27.4 -1.74 -0.069
20:55 1020 30.12 850 25.1 -2.2 28.1 97 -2.5 27.4 -1.746 -0.069
20:56 1020 30.12 850 25.1 -2.2 28 98 -2.6 27.4 -1.768 -0.07
20:57 1020 30.12 850 25.1 -2.2 28 98 -2.5 27.4 -1.768 -0.07
20:58 1020 30.12 850 25.1 -2.2 28 98 -2.5 27.4 -1.785 -0.07
20:59 1020 30.12 850 25.1 -2.2 28 98 -2.5 27.5 -1.802 -0.071
21:00 1020 30.12 850 25.1 -2.2 28 98 -2.5 27.5 -1.774 -0.07
21:01 1020 30.12 850 25.1 -2.2 28 98 -2.5 27.5 -1.791 -0.071
21:02 1020 30.12 850 25.1 -2.3 27.9 98 -2.5 27.4 -1.785 -0.07
21:03 1020 30.12 850 25.1 -2.3 28 98 -2.5 27.5 -1.802 -0.071
21:04 1021 30.15 850 25.1 -2.3 27.9 98 -2.5 27.4 -1.797 -0.071
21:05 1021 30.15 850 25.1 -2.3 27.9 98 -2.5 27.5 -1.797 -0.071
21:06 1021 30.15 850 25.1 -2.3 27.9 98 -2.5 27.4 -1.842 -0.073
21:07 1021 30.15 850 25.1 -2.4 27.7 98 -2.6 27.3 -1.898 -0.075
21:08 1021 30.15 850 25.1 -2.4 27.7 98 -2.6 27.3 -1.91 -0.075
21:09 1021 30.15 850 25.1 -2.4 27.7 98 -2.6 27.3 -1.972 -0.078
21:10 1021 30.15 850 25.1 -2.4 27.6 99 -2.6 27.3 -1.978 -0.078
21:11 1021 30.15 850 25.1 -2.4 27.6 99 -2.6 27.3 -1.995 -0.079
21:12 1021 30.15 850 25.1 -2.4 27.7 99 -2.6 27.4 -1.966 -0.077
21:13 1021 30.15 850 25.1 -2.4 27.7 99 -2.6 27.4 -1.983 -0.078
21:14 1021 30.15 850 25.1 -2.4 27.7 99 -2.6 27.4 -1.982 -0.078
21:15 1021 30.15 850 25.1 -2.4 27.6 99 -2.6 27.4 -2.044 -0.08
21:16 1021 30.15 850 25.1 -2.4 27.6 99 -2.6 27.4 -2.016 -0.079
21:17 1021 30.15 850 25.1 -2.5 27.6 99 -2.6 27.3 -2.032 -0.08
21:18 1021 30.15 850 25.1 -2.5 27.6 99 -2.6 27.3 -2.021 -0.08
21:19 1021 30.15 850 25.1 -2.5 27.4 99 -2.7 27.2 -2.088 -0.082
21:20 1021 30.15 850 25.1 -2.6 27.3 99 -2.7 27.1 -2.184 -0.086
21:21 1021 30.15 850 25.1 -2.6 27.3 99 -2.7 27.1 -2.258 -0.089
21:22 1021 30.15 850 25.1 -2.6 27.2 99 -2.8 26.9 -2.354 -0.093
21:23 1021 30.15 850 25.1 -2.7 27.1 99 -2.9 26.8 -2.353 -0.093
21:24 1021 30.15 850 25.1 -2.8 26.9 99 -3 26.7 -2.455 -0.097
21:25 1021 30.15 850 25.1 -2.8 27 99 -2.9 26.8 -2.466 -0.097
21:26 1021 30.15 850 25.1 -2.8 26.9 99 -2.9 26.8 -2.432 -0.096
21:27 1021 30.15 850 25.1 -2.8 27 100 -2.8 26.9 -2.381 -0.094
21:28 1021 30.15 850 25.1 -2.7 27.2 100 -2.7 27.1 -2.324 -0.091
21:29 1021 30.15 850 25.1 -2.7 27.1 100 -2.8 27 -2.33 -0.092
21:30 1021 30.15 850 25.1 -2.7 27.1 100 -2.8 27 -2.347 -0.092
21:31 1021 30.15 850 25.1 -2.7 27.1 100 -2.7 27.1 -2.301 -0.091
21:32 1021 30.15 850 25.1 -2.6 27.2 100 -2.7 27.2 -2.249 -0.089
21:33 1021 30.15 850 25.1 -2.6 27.3 100 -2.7 27.2 -2.237 -0.088
21:34 1021 30.15 850 25.1 -2.7 27.2 100 -2.7 27.1 -2.265 -0.089
21:35 1021 30.15 850 25.1 -2.7 27.1 100 -2.8 27 -2.287 -0.09
21:36 1021 30.15 850 25.1 -2.7 27.1 100 -2.8 27 -2.31 -0.091
21:37 1021 30.15 850 25.1 -2.7 27.1 100 -2.8 27 -2.337 -0.092
21:38 1021 30.15 850 25.1 -2.8 27 100 -2.8 26.9 -2.354 -0.093
21:39 1021 30.15 850 25.1 -2.8 27 100 -2.8 27 -2.348 -0.092
21:40 1021 30.15 850 25.1 -2.8 26.9 99 -2.9 26.7 -2.438 -0.096
21:41 1021 30.15 850 25.1 -2.9 26.8 99 -2.9 26.7 -2.472 -0.097
21:42 1021 30.15 850 25.1 -2.9 26.7 99 -3 26.5 -2.563 -0.101
21:43 1021 30.15 850 25.1 -3 26.6 99 -3.1 26.4 -2.596 -0.102
21:44 1021 30.15 850 25.1 -3.1 26.4 99 -3.2 26.2 -2.698 -0.106
21:45 1021 30.15 850 25.1 -3.1 26.3 99 -3.3 26.1 -2.783 -0.11
21:46 1021 30.15 850 25.1 -3.2 26.2 99 -3.3 26 -2.839 -0.112
21:47 1021 30.15 850 25.1 -3.3 26.1 99 -3.4 25.9 -2.839 -0.112
21:48 1021 30.15 850 25.1 -3.3 26.1 99 -3.4 25.9 -2.935 -0.116
21:49 1021 30.15 850 25.1 -3.3 26 99 -3.4 25.9 -2.946 -0.116
21:50 1021 30.15 850 25.1 -3.3 26 99 -3.4 25.9 -2.958 -0.116
21:51 1021 30.15 850 25.1 -3.4 26 99 -3.5 25.8 -3.02 -0.119
21:52 1021 30.15 850 25.1 -3.4 25.9 100 -3.5 25.8 -3.014 -0.119
21:53 1021 30.15 850 25.1 -3.3 26 100 -3.4 25.9 -2.986 -0.118
21:54 1021 30.15 850 25.1 -3.3 26 100 -3.4 25.9 -3.003 -0.118
21:55 1021 30.15 850 25.1 -3.4 25.9 100 -3.4 25.8 -2.985 -0.118
21:56 1021 30.15 850 25.1 -3.4 25.8 99 -3.5 25.6 -3.042 -0.12
21:57 1021 30.15 850 25.1 -3.5 25.7 99 -3.7 25.4 -3.127 -0.123
21:58 1021 30.15 850 25.1 -3.6 25.5 99 -3.7 25.3 -3.229 -0.127
21:59 1021 30.15 850 25.1 -3.7 25.4 99 -3.9 25 -3.302 -0.13
22:00 1021 30.15 850 25.1 -3.8 25.1 98 -4 24.7 -3.421 -0.135
22:01 1021 30.15 850 25.1 -3.9 25 99 -4.1 24.7 -3.518 -0.139
22:02 1021 30.15 850 25.1 -3.9 25 99 -4.1 24.7 -3.552 -0.14
22:03 1021 30.15 850 25.1 -3.9 25 99 -4.1 24.6 -3.54 -0.139
22:04 1021 30.15 850 25.1 -3.9 25 99 -4 24.8 -3.511 -0.138
22:05 1021 30.15 850 25.1 -3.9 24.9 98 -4.2 24.4 -3.663 -0.144
22:06 1021 30.15 850 25.1 -4.2 24.4 97 -4.7 23.6 -3.958 -0.156
22:07 1021 30.15 850 25.1 -4.4 24 96 -4.9 23.1 -4.144 -0.163
22:08 1021 30.15 850 25.1 -4.6 23.6 96 -5.2 22.6 -4.365 -0.172
22:09 1021 30.15 850 25.1 -4.9 23.3 96 -5.4 22.2 -4.557 -0.179
22:10 1021 30.15 850 25.1 -5.1 22.9 96 -5.6 21.9 -4.761 -0.187
22:11 1021 30.15 850 25.1 -5.2 22.7 96 -5.7 21.7 -4.885 -0.192
22:12 1021 30.15 850 25.1 -5.3 22.5 96 -5.8 21.6 -4.987 -0.196
22:13 1021 30.15 850 25.1 -5.3 22.4 97 -5.8 21.6 -5.089 -0.2
22:14 1021 30.15 850 25.1 -5.4 22.2 97 -5.9 21.5 -5.123 -0.202
22:15 1021 30.15 850 25.1 -5.4 22.2 97 -5.8 21.6 -5.122 -0.202
22:16 1021 30.15 850 25.1 -5.3 22.5 99 -5.5 22.2 -4.946 -0.195
22:17 1021 30.15 850 25.1 -5.1 22.8 99 -5.3 22.5 -4.793 -0.189
22:18 1021 30.15 850 25.1 -5 22.9 99 -5.2 22.6 -4.724 -0.186
22:19 1021 30.15 850 25.1 -5 23 99 -5.2 22.6 -4.667 -0.184
22:20 1021 30.15 850 25.1 -5 23 98 -5.2 22.6 -4.678 -0.184
22:21 1021 30.15 850 25.1 -4.8 23.3 99 -4.9 23.1 -4.525 -0.178
22:22 1021 30.15 850 25.1 -4.6 23.7 100 -4.7 23.6 -4.281 -0.169
22:23 1021 30.15 850 25.1 -4.4 24.1 99 -4.5 23.9 -4.105 -0.162
22:24 1021 30.15 850 25.1 -4.4 24.1 98 -4.6 23.7 -4.132 -0.163
22:25 1021 30.15 850 25.1 -4.5 24 97 -4.8 23.3 -4.2 -0.165
22:26 1021 30.15 850 25.1 -4.5 23.8 97 -5 23 -4.24 -0.167
22:27 1021 30.15 850 25.1 -4.6 23.8 96 -5.1 22.9 -4.29 -0.169
22:28 1021 30.15 850 25.1 -4.6 23.8 96 -5.1 22.9 -4.267 -0.168
22:29 1021 30.15 850 25.1 -4.6 23.7 96 -5.1 22.8 -4.33 -0.17
22:30 1021 30.15 850 25.1 -4.6 23.8 97 -5 23 -4.284 -0.169
22:31 1021 30.15 850 25.1 -4.5 23.9 96 -5.1 22.8 -4.244 -0.167
22:32 1021 30.15 850 25.1 -4.5 23.8 96 -5.1 22.9 -4.255 -0.168
22:33 1021 30.15 850 25.1 -4.5 23.9 96 -5 23 -4.17 -0.164
22:34 1020 30.12 850 25.1 -4.5 23.9 95 -5.2 22.6 -4.204 -0.166
22:35 1020 30.12 850 25.1 -4.6 23.7 94 -5.4 22.2 -4.294 -0.169
22:36 1020 30.12 850 25.1 -4.8 23.4 94 -5.6 21.8 -4.419 -0.174
22:37 1020 30.12 850 25.1 -4.8 23.3 94 -5.6 21.9 -4.549 -0.179
22:38 1020 30.12 850 25.1 -4.8 23.3 95 -5.6 22 -4.487 -0.177
22:39 1020 30.12 850 25.1 -4.8 23.4 94 -5.5 22 -4.475 -0.176
22:40 1020 30.12 850 25.1 -4.8 23.4 95 -5.5 22 -4.464 -0.176
22:41 1020 30.12 850 25.1 -4.7 23.5 95 -5.5 22.2 -4.424 -0.174
22:42 1020 30.12 850 25.1 -4.7 23.6 94 -5.5 22.1 -4.373 -0.172
22:43 1020 30.12 850 25.1 -4.6 23.6 94 -5.4 22.2 -4.299 -0.169
22:44 1020 30.12 850 25.1 -4.6 23.8 94 -5.3 22.4 -4.242 -0.167
22:45 1020 30.12 850 25.1 -4.5 23.9 94 -5.4 22.4 -4.184 -0.165
22:46 1020 30.12 850 25.1 -4.5 24 93 -5.4 22.3 -4.105 -0.162
22:47 1020 30.12 850 25.1 -4.4 24 93 -5.4 22.3 -4.059 -0.16
22:48 1020 30.12 850 25.1 -4.4 24.1 93 -5.4 22.3 -4.07 -0.16
22:49 1020 30.12 850 25.1 -4.4 24.1 93 -5.4 22.3 -4.081 -0.161
22:50 1020 30.12 850 25.1 -4.4 24 91 -5.7 21.8 -4.126 -0.162
22:51 1020 30.12 850 25.1 -4.5 23.8 92 -5.7 21.8 -4.165 -0.164
22:52 1020 30.12 850 25.1 -4.5 23.9 93 -5.5 22.1 -4.12 -0.162
22:53 1020 30.12 850 25.1 -4.4 24 92 -5.5 22.1 -4.097 -0.161
22:54 1020 30.12 850 25.1 -4.4 24 92 -5.6 22 -4.142 -0.163
22:55 1020 30.12 850 25.1 -4.6 23.7 89 -6.2 20.8 -4.34 -0.171
22:56 1020 30.12 850 25.1 -4.8 23.3 91 -6.1 21 -4.555 -0.179
22:57 1020 30.12 850 25.1 -5 23.1 92 -6.1 21 -4.629 -0.182
22:58 1020 30.12 849 25.07 -4.9 23.1 93 -5.9 21.4 -4.64 -0.183
22:59 1020 30.12 849 25.07 -4.9 23.2 92 -6 21.3 -4.651 -0.183
23:00 1020 30.12 849 25.07 -5 23.1 92 -6.1 21.1 -4.69 -0.185
23:01 1020 30.12 849 25.07 -5 23.1 92 -6.1 21.1 -4.713 -0.186
23:02 1020 30.12 849 25.07 -5 22.9 91 -6.3 20.7 -4.74 -0.187
23:03 1020 30.12 849 25.07 -5.2 22.7 90 -6.5 20.2 -4.882 -0.192
23:04 1020 30.12 849 25.07 -5.5 22.2 89 -7.1 19.3 -5.227 -0.206
23:05 1020 30.12 849 25.07 -5.7 21.7 90 -7.2 19.1 -5.482 -0.216
23:06 1020 30.12 849 25.07 -6 21.2 90 -7.3 18.8 -5.731 -0.226
23:07 1020 30.12 849 25.07 -6.2 20.8 90 -7.6 18.3 -5.974 -0.235
23:08 1020 30.12 849 25.07 -6.5 20.3 87 -8.4 16.9 -6.246 -0.246
23:09 1020 30.12 849 25.07 -7.1 19.2 83 -9.5 14.8 -6.778 -0.267
23:10 1020 30.12 849 25.07 -7.7 18.2 86 -9.7 14.6 -7.29 -0.287
23:11 1020 30.12 849 25.07 -8 17.6 89 -9.5 14.9 -7.59 -0.299
23:12 1020 30.12 849 25.07 -8 17.7 95 -8.7 16.4 -7.57 -0.298
23:13 1020 30.12 849 25.07 -7.5 18.4 97 -7.9 17.8 -7.15 -0.281
23:14 1020 30.12 849 25.07 -7.2 19 98 -7.5 18.5 -6.936 -0.273
23:15 1020 30.12 849 25.07 -7.1 19.3 98 -7.4 18.7 -6.754 -0.266
23:16 1020 30.12 849 25.07 -7 19.4 97 -7.4 18.8 -6.731 -0.265
23:17 1020 30.12 849 25.07 -6.9 19.5 98 -7.3 18.9 -6.691 -0.263
23:18 1020 30.12 849 25.07 -6.9 19.7 98 -7.2 19.1 -6.561 -0.258
23:19 1020 30.12 849 25.07 -6.8 19.8 98 -7 19.4 -6.493 -0.256
23:20 1020 30.12 849 25.07 -6.7 20 98 -7 19.5 -6.424 -0.253
23:21 1020 30.12 849 25.07 -6.7 20 98 -7 19.4 -6.413 -0.252
23:22 1020 30.12 849 25.07 -6.5 20.2 98 -6.8 19.8 -6.305 -0.248
23:23 1020 30.12 849 25.07 -6.5 20.3 98 -6.8 19.8 -6.254 -0.246
23:24 1020 30.12 849 25.07 -6.5 20.4 98 -6.8 19.8 -6.248 -0.246
23:25 1020 30.12 849 25.07 -6.5 20.4 98 -6.8 19.8 -6.214 -0.245
23:26 1020 30.12 849 25.07 -6.4 20.4 97 -6.8 19.7 -6.203 -0.244
23:27 1020 30.12 849 25.07 -6.5 20.4 97 -6.9 19.6 -6.186 -0.244
23:28 1020 30.12 849 25.07 -6.4 20.5 97 -6.9 19.7 -6.135 -0.242
23:29 1020 30.12 849 25.07 -6.4 20.5 97 -6.8 19.7 -6.123 -0.241
23:30 1020 30.12 849 25.07 -6.3 20.6 97 -6.8 19.8 -6.084 -0.24
23:31 1020 30.12 849 25.07 -6.4 20.5 96 -7 19.5 -6.135 -0.242
23:32 1020 30.12 849 25.07 -6.4 20.4 95 -7.2 19.1 -6.202 -0.244
23:33 1020 30.12 849 25.07 -6.6 20.1 94 -7.4 18.7 -6.322 -0.249
23:34 1020 30.12 849 25.07 -6.6 20.1 95 -7.3 18.8 -6.401 -0.252
23:35 1020 30.12 849 25.07 -6.7 20 96 -7.2 19 -6.389 -0.252
23:36 1020 30.12 849 25.07 -6.5 20.3 97 -6.9 19.5 -6.304 -0.248
23:37 1020 30.12 849 25.07 -6.4 20.4 97 -6.9 19.6 -6.214 -0.245
23:38 1020 30.12 849 25.07 -6.6 20.2 94 -7.4 18.6 -6.367 -0.251
23:39 1020 30.12 849 25.07 -6.7 20 95 -7.4 18.6 -6.435 -0.253
23:40 1020 30.12 849 25.07 -6.8 19.8 94 -7.5 18.4 -6.474 -0.255
23:41 1020 30.12 849 25.07 -6.9 19.6 94 -7.7 18.2 -6.592 -0.26
23:42 1020 30.12 849 25.07 -7.1 19.3 93 -8.1 17.5 -6.745 -0.266
23:43 1020 30.12 849 25.07 -7.3 18.9 94 -8.1 17.4 -6.96 -0.274
23:44 1020 30.12 849 25.07 -7.1 19.2 96 -7.6 18.3 -6.903 -0.272
23:45 1020 30.12 849 25.07 -6.9 19.6 98 -7.2 19.1 -6.676 -0.263
23:46 1020 30.12 849 25.07 -6.6 20.1 97 -7 19.4 -6.472 -0.255
23:47 1020 30.12 849 25.07 -6.7 19.9 96 -7.2 19 -6.505 -0.256
23:48 1020 30.12 849 25.07 -6.8 19.8 96 -7.4 18.7 -6.477 -0.255
23:49 1020 30.12 849 25.07 -6.8 19.8 96 -7.3 18.8 -6.522 -0.257
23:50 1020 30.12 849 25.07 -6.7 20 97 -7 19.4 -6.403 -0.252
23:51 1020 30.12 849 25.07 -6.4 20.5 98 -6.6 20.1 -6.216 -0.245
23:52 1020 30.12 849 25.07 -6.2 20.8 98 -6.4 20.4 -6.005 -0.236
23:53 1020 30.12 849 25.07 -6 21.1 98 -6.2 20.8 -5.818 -0.229
23:54 1020 30.12 849 25.07 -5.9 21.3 98 -6.2 20.9 -5.659 -0.223
23:55 1020 30.12 849 25.07 -6 21.3 97 -6.4 20.4 -5.71 -0.225
23:56 1020 30.12 849 25.07 -6.4 20.5 92 -7.4 18.7 -6.09 -0.24
23:57 1020 30.12 849 25.07 -6.9 19.6 90 -8.2 17.2 -6.504 -0.256
23:58 1020 30.12 849 25.07 -7.2 19 92 -8.3 17.1 -6.872 -0.271
23:59 1020 30.12 849 25.07 -7.3 19 95 -7.9 17.7 -6.912 -0.272
24:00 1020 30.12 849 25.07 -7.2 19.1 96 -7.7 18.2 -6.827 -0.269